<?xml version="1.0" encoding="UTF-8" standalone="no" ?>
<gpx xmlns="http://www.topografix.com/GPX/1/1" xmlns:xsi="http://www.w3.org/2001/XMLSchema-instance" xsi:schemaLocation="http://www.topografix.com/GPX/1/1 http://www.topografix.com/GPX/1/1/gpx.xsd" version="1.1" creator="VisuGPX - https://www.visugpx.com">
  <metadata>
    <name>83 - L - Flayosc</name>
    <desc><![CDATA[83 - L - Flayosc à la découverte du canal  ]]></desc>
  </metadata>
  <trk>
    <name><![CDATA[Flayosc  nord 2026-02-02-01]]></name>
    <trkseg>
      <trkpt lat="43.53286" lon="6.39445">
        <ele>346.6</ele>
        <time>2026-02-02T08:02:52Z</time>
      </trkpt>
      <trkpt lat="43.53287" lon="6.39443">
        <ele>346</ele>
        <time>2026-02-02T08:02:53Z</time>
      </trkpt>
      <trkpt lat="43.53279" lon="6.39449">
        <ele>347.3</ele>
        <time>2026-02-02T08:03:28Z</time>
      </trkpt>
      <trkpt lat="43.53288" lon="6.3945">
        <ele>347.3</ele>
        <time>2026-02-02T08:03:55Z</time>
      </trkpt>
      <trkpt lat="43.53291" lon="6.39463">
        <ele>346</ele>
        <time>2026-02-02T08:04:10Z</time>
      </trkpt>
      <trkpt lat="43.53294" lon="6.39475">
        <ele>344.9</ele>
        <time>2026-02-02T08:04:17Z</time>
      </trkpt>
      <trkpt lat="43.533" lon="6.39487">
        <ele>343.3</ele>
        <time>2026-02-02T08:04:26Z</time>
      </trkpt>
      <trkpt lat="43.53302" lon="6.395">
        <ele>342.5</ele>
        <time>2026-02-02T08:04:30Z</time>
      </trkpt>
      <trkpt lat="43.53306" lon="6.39512">
        <ele>340.5</ele>
        <time>2026-02-02T08:04:43Z</time>
      </trkpt>
      <trkpt lat="43.53308" lon="6.39524">
        <ele>340.1</ele>
        <time>2026-02-02T08:04:49Z</time>
      </trkpt>
      <trkpt lat="43.53307" lon="6.39537">
        <ele>339.2</ele>
        <time>2026-02-02T08:04:55Z</time>
      </trkpt>
      <trkpt lat="43.53305" lon="6.3955">
        <ele>338.1</ele>
        <time>2026-02-02T08:05:08Z</time>
      </trkpt>
      <trkpt lat="43.53302" lon="6.39562">
        <ele>336.8</ele>
        <time>2026-02-02T08:05:17Z</time>
      </trkpt>
      <trkpt lat="43.53298" lon="6.39575">
        <ele>335.6</ele>
        <time>2026-02-02T08:05:27Z</time>
      </trkpt>
      <trkpt lat="43.53304" lon="6.39585">
        <ele>333.6</ele>
        <time>2026-02-02T08:05:43Z</time>
      </trkpt>
      <trkpt lat="43.53313" lon="6.39585">
        <ele>332.5</ele>
        <time>2026-02-02T08:05:54Z</time>
      </trkpt>
      <trkpt lat="43.53322" lon="6.39591">
        <ele>331.8</ele>
        <time>2026-02-02T08:06:08Z</time>
      </trkpt>
      <trkpt lat="43.53332" lon="6.39596">
        <ele>331.2</ele>
        <time>2026-02-02T08:06:18Z</time>
      </trkpt>
      <trkpt lat="43.53339" lon="6.39604">
        <ele>330.7</ele>
        <time>2026-02-02T08:06:28Z</time>
      </trkpt>
      <trkpt lat="43.53348" lon="6.39613">
        <ele>330</ele>
        <time>2026-02-02T08:06:38Z</time>
      </trkpt>
      <trkpt lat="43.53357" lon="6.39615">
        <ele>329</ele>
        <time>2026-02-02T08:06:49Z</time>
      </trkpt>
      <trkpt lat="43.53366" lon="6.39617">
        <ele>329.9</ele>
        <time>2026-02-02T08:07:00Z</time>
      </trkpt>
      <trkpt lat="43.53375" lon="6.3962">
        <ele>329.9</ele>
        <time>2026-02-02T08:07:06Z</time>
      </trkpt>
      <trkpt lat="43.53382" lon="6.39628">
        <ele>330</ele>
        <time>2026-02-02T08:07:17Z</time>
      </trkpt>
      <trkpt lat="43.53385" lon="6.39641">
        <ele>329.9</ele>
        <time>2026-02-02T08:07:28Z</time>
      </trkpt>
      <trkpt lat="43.53393" lon="6.39634">
        <ele>330.1</ele>
        <time>2026-02-02T08:08:39Z</time>
      </trkpt>
      <trkpt lat="43.53398" lon="6.39624">
        <ele>330.3</ele>
        <time>2026-02-02T08:08:56Z</time>
      </trkpt>
      <trkpt lat="43.53402" lon="6.39613">
        <ele>330.5</ele>
        <time>2026-02-02T08:09:08Z</time>
      </trkpt>
      <trkpt lat="43.53408" lon="6.39603">
        <ele>330.8</ele>
        <time>2026-02-02T08:09:18Z</time>
      </trkpt>
      <trkpt lat="43.53411" lon="6.39591">
        <ele>331.2</ele>
        <time>2026-02-02T08:09:29Z</time>
      </trkpt>
      <trkpt lat="43.53417" lon="6.3958">
        <ele>331.8</ele>
        <time>2026-02-02T08:09:38Z</time>
      </trkpt>
      <trkpt lat="43.53424" lon="6.39571">
        <ele>332.1</ele>
        <time>2026-02-02T08:09:47Z</time>
      </trkpt>
      <trkpt lat="43.53429" lon="6.3956">
        <ele>332.8</ele>
        <time>2026-02-02T08:09:56Z</time>
      </trkpt>
      <trkpt lat="43.53432" lon="6.39548">
        <ele>332.9</ele>
        <time>2026-02-02T08:10:03Z</time>
      </trkpt>
      <trkpt lat="43.53438" lon="6.39539">
        <ele>333.3</ele>
        <time>2026-02-02T08:10:17Z</time>
      </trkpt>
      <trkpt lat="43.53442" lon="6.39527">
        <ele>333.9</ele>
        <time>2026-02-02T08:10:27Z</time>
      </trkpt>
      <trkpt lat="43.53442" lon="6.39514">
        <ele>334.3</ele>
        <time>2026-02-02T08:10:35Z</time>
      </trkpt>
      <trkpt lat="43.53446" lon="6.39502">
        <ele>334.5</ele>
        <time>2026-02-02T08:10:47Z</time>
      </trkpt>
      <trkpt lat="43.53451" lon="6.39491">
        <ele>334.9</ele>
        <time>2026-02-02T08:10:58Z</time>
      </trkpt>
      <trkpt lat="43.53453" lon="6.39479">
        <ele>335.2</ele>
        <time>2026-02-02T08:11:11Z</time>
      </trkpt>
      <trkpt lat="43.53454" lon="6.39466">
        <ele>335</ele>
        <time>2026-02-02T08:11:20Z</time>
      </trkpt>
      <trkpt lat="43.53459" lon="6.39454">
        <ele>335.6</ele>
        <time>2026-02-02T08:11:33Z</time>
      </trkpt>
      <trkpt lat="43.53464" lon="6.39442">
        <ele>336.1</ele>
        <time>2026-02-02T08:11:52Z</time>
      </trkpt>
      <trkpt lat="43.53465" lon="6.3943">
        <ele>336.4</ele>
        <time>2026-02-02T08:12:03Z</time>
      </trkpt>
      <trkpt lat="43.53465" lon="6.39416">
        <ele>337.1</ele>
        <time>2026-02-02T08:12:15Z</time>
      </trkpt>
      <trkpt lat="43.53467" lon="6.39403">
        <ele>337.1</ele>
        <time>2026-02-02T08:12:21Z</time>
      </trkpt>
      <trkpt lat="43.53466" lon="6.39389">
        <ele>337.2</ele>
        <time>2026-02-02T08:12:26Z</time>
      </trkpt>
      <trkpt lat="43.53467" lon="6.39376">
        <ele>337.2</ele>
        <time>2026-02-02T08:12:36Z</time>
      </trkpt>
      <trkpt lat="43.53476" lon="6.39373">
        <ele>335.9</ele>
        <time>2026-02-02T08:13:09Z</time>
      </trkpt>
      <trkpt lat="43.53484" lon="6.3938">
        <ele>333.3</ele>
        <time>2026-02-02T08:13:20Z</time>
      </trkpt>
      <trkpt lat="43.53494" lon="6.39381">
        <ele>331.9</ele>
        <time>2026-02-02T08:13:30Z</time>
      </trkpt>
      <trkpt lat="43.53502" lon="6.3939">
        <ele>330.8</ele>
        <time>2026-02-02T08:13:42Z</time>
      </trkpt>
      <trkpt lat="43.53506" lon="6.39403">
        <ele>328.3</ele>
        <time>2026-02-02T08:13:56Z</time>
      </trkpt>
      <trkpt lat="43.53515" lon="6.394">
        <ele>326.5</ele>
        <time>2026-02-02T08:14:06Z</time>
      </trkpt>
      <trkpt lat="43.53522" lon="6.39389">
        <ele>325.1</ele>
        <time>2026-02-02T08:14:17Z</time>
      </trkpt>
      <trkpt lat="43.53527" lon="6.39378">
        <ele>324.4</ele>
        <time>2026-02-02T08:14:24Z</time>
      </trkpt>
      <trkpt lat="43.53531" lon="6.39367">
        <ele>323.1</ele>
        <time>2026-02-02T08:14:35Z</time>
      </trkpt>
      <trkpt lat="43.53536" lon="6.39357">
        <ele>321.8</ele>
        <time>2026-02-02T08:15:10Z</time>
      </trkpt>
      <trkpt lat="43.53542" lon="6.39347">
        <ele>321.2</ele>
        <time>2026-02-02T08:15:20Z</time>
      </trkpt>
      <trkpt lat="43.53547" lon="6.39337">
        <ele>320.6</ele>
        <time>2026-02-02T08:15:32Z</time>
      </trkpt>
      <trkpt lat="43.53552" lon="6.39327">
        <ele>320</ele>
        <time>2026-02-02T08:15:49Z</time>
      </trkpt>
      <trkpt lat="43.53561" lon="6.39331">
        <ele>319.9</ele>
        <time>2026-02-02T08:15:54Z</time>
      </trkpt>
      <trkpt lat="43.53572" lon="6.39322">
        <ele>319.7</ele>
        <time>2026-02-02T08:15:59Z</time>
      </trkpt>
      <trkpt lat="43.53581" lon="6.39317">
        <ele>319.4</ele>
        <time>2026-02-02T08:16:09Z</time>
      </trkpt>
      <trkpt lat="43.5359" lon="6.39313">
        <ele>319</ele>
        <time>2026-02-02T08:16:25Z</time>
      </trkpt>
      <trkpt lat="43.53599" lon="6.39309">
        <ele>318.9</ele>
        <time>2026-02-02T08:16:34Z</time>
      </trkpt>
      <trkpt lat="43.53608" lon="6.39305">
        <ele>319.1</ele>
        <time>2026-02-02T08:16:43Z</time>
      </trkpt>
      <trkpt lat="43.53617" lon="6.39299">
        <ele>319.3</ele>
        <time>2026-02-02T08:16:53Z</time>
      </trkpt>
      <trkpt lat="43.53626" lon="6.39296">
        <ele>319.8</ele>
        <time>2026-02-02T08:17:04Z</time>
      </trkpt>
      <trkpt lat="43.53635" lon="6.39292">
        <ele>320</ele>
        <time>2026-02-02T08:17:21Z</time>
      </trkpt>
      <trkpt lat="43.53644" lon="6.39285">
        <ele>320.3</ele>
        <time>2026-02-02T08:17:31Z</time>
      </trkpt>
      <trkpt lat="43.53653" lon="6.3928">
        <ele>320.7</ele>
        <time>2026-02-02T08:17:41Z</time>
      </trkpt>
      <trkpt lat="43.53662" lon="6.39274">
        <ele>321.1</ele>
        <time>2026-02-02T08:17:51Z</time>
      </trkpt>
      <trkpt lat="43.53671" lon="6.39272">
        <ele>321.3</ele>
        <time>2026-02-02T08:18:01Z</time>
      </trkpt>
      <trkpt lat="43.53679" lon="6.39278">
        <ele>320.7</ele>
        <time>2026-02-02T08:18:16Z</time>
      </trkpt>
      <trkpt lat="43.53688" lon="6.39282">
        <ele>319.6</ele>
        <time>2026-02-02T08:18:28Z</time>
      </trkpt>
      <trkpt lat="43.53697" lon="6.39283">
        <ele>317.9</ele>
        <time>2026-02-02T08:18:46Z</time>
      </trkpt>
      <trkpt lat="43.53705" lon="6.39277">
        <ele>316.8</ele>
        <time>2026-02-02T08:19:20Z</time>
      </trkpt>
      <trkpt lat="43.53712" lon="6.39268">
        <ele>315.7</ele>
        <time>2026-02-02T08:19:30Z</time>
      </trkpt>
      <trkpt lat="43.53718" lon="6.39258">
        <ele>314.2</ele>
        <time>2026-02-02T08:19:38Z</time>
      </trkpt>
      <trkpt lat="43.53728" lon="6.39255">
        <ele>313.7</ele>
        <time>2026-02-02T08:19:46Z</time>
      </trkpt>
      <trkpt lat="43.53737" lon="6.39256">
        <ele>307.3</ele>
        <time>2026-02-02T08:19:55Z</time>
      </trkpt>
      <trkpt lat="43.53745" lon="6.39264">
        <ele>312</ele>
        <time>2026-02-02T08:20:04Z</time>
      </trkpt>
      <trkpt lat="43.53754" lon="6.39268">
        <ele>312.1</ele>
        <time>2026-02-02T08:20:13Z</time>
      </trkpt>
      <trkpt lat="43.53763" lon="6.3927">
        <ele>312</ele>
        <time>2026-02-02T08:20:23Z</time>
      </trkpt>
      <trkpt lat="43.53773" lon="6.39275">
        <ele>312.2</ele>
        <time>2026-02-02T08:20:35Z</time>
      </trkpt>
      <trkpt lat="43.53782" lon="6.39278">
        <ele>313</ele>
        <time>2026-02-02T08:20:43Z</time>
      </trkpt>
      <trkpt lat="43.53791" lon="6.39279">
        <ele>313.7</ele>
        <time>2026-02-02T08:20:52Z</time>
      </trkpt>
      <trkpt lat="43.53801" lon="6.39283">
        <ele>314.4</ele>
        <time>2026-02-02T08:21:01Z</time>
      </trkpt>
      <trkpt lat="43.5381" lon="6.39283">
        <ele>315.2</ele>
        <time>2026-02-02T08:21:19Z</time>
      </trkpt>
      <trkpt lat="43.53819" lon="6.39289">
        <ele>315.4</ele>
        <time>2026-02-02T08:21:34Z</time>
      </trkpt>
      <trkpt lat="43.53826" lon="6.39297">
        <ele>315.2</ele>
        <time>2026-02-02T08:21:42Z</time>
      </trkpt>
      <trkpt lat="43.53833" lon="6.39304">
        <ele>314.9</ele>
        <time>2026-02-02T08:21:50Z</time>
      </trkpt>
      <trkpt lat="43.53841" lon="6.39312">
        <ele>314.4</ele>
        <time>2026-02-02T08:22:01Z</time>
      </trkpt>
      <trkpt lat="43.53848" lon="6.3932">
        <ele>314.1</ele>
        <time>2026-02-02T08:22:12Z</time>
      </trkpt>
      <trkpt lat="43.53857" lon="6.39324">
        <ele>313.9</ele>
        <time>2026-02-02T08:22:19Z</time>
      </trkpt>
      <trkpt lat="43.53865" lon="6.3933">
        <ele>313.8</ele>
        <time>2026-02-02T08:22:26Z</time>
      </trkpt>
      <trkpt lat="43.53874" lon="6.39333">
        <ele>314.3</ele>
        <time>2026-02-02T08:22:45Z</time>
      </trkpt>
      <trkpt lat="43.53884" lon="6.39331">
        <ele>315</ele>
        <time>2026-02-02T08:23:00Z</time>
      </trkpt>
      <trkpt lat="43.53892" lon="6.39323">
        <ele>315.4</ele>
        <time>2026-02-02T08:23:11Z</time>
      </trkpt>
      <trkpt lat="43.53901" lon="6.3932">
        <ele>315.7</ele>
        <time>2026-02-02T08:23:40Z</time>
      </trkpt>
      <trkpt lat="43.5391" lon="6.39317">
        <ele>316.2</ele>
        <time>2026-02-02T08:23:53Z</time>
      </trkpt>
      <trkpt lat="43.53918" lon="6.3931">
        <ele>316.7</ele>
        <time>2026-02-02T08:24:07Z</time>
      </trkpt>
      <trkpt lat="43.53927" lon="6.39305">
        <ele>317.5</ele>
        <time>2026-02-02T08:24:17Z</time>
      </trkpt>
      <trkpt lat="43.53936" lon="6.39303">
        <ele>317.8</ele>
        <time>2026-02-02T08:24:28Z</time>
      </trkpt>
      <trkpt lat="43.53946" lon="6.39301">
        <ele>317.9</ele>
        <time>2026-02-02T08:24:40Z</time>
      </trkpt>
      <trkpt lat="43.53955" lon="6.39297">
        <ele>318</ele>
        <time>2026-02-02T08:24:51Z</time>
      </trkpt>
      <trkpt lat="43.53963" lon="6.39302">
        <ele>317.7</ele>
        <time>2026-02-02T08:25:05Z</time>
      </trkpt>
      <trkpt lat="43.53972" lon="6.39297">
        <ele>318.4</ele>
        <time>2026-02-02T08:25:17Z</time>
      </trkpt>
      <trkpt lat="43.53981" lon="6.39295">
        <ele>319.8</ele>
        <time>2026-02-02T08:25:34Z</time>
      </trkpt>
      <trkpt lat="43.5399" lon="6.3929">
        <ele>319.9</ele>
        <time>2026-02-02T08:25:43Z</time>
      </trkpt>
      <trkpt lat="43.53998" lon="6.39283">
        <ele>319.7</ele>
        <time>2026-02-02T08:25:50Z</time>
      </trkpt>
      <trkpt lat="43.54006" lon="6.39277">
        <ele>319.7</ele>
        <time>2026-02-02T08:26:02Z</time>
      </trkpt>
      <trkpt lat="43.54015" lon="6.39273">
        <ele>319.8</ele>
        <time>2026-02-02T08:26:14Z</time>
      </trkpt>
      <trkpt lat="43.54023" lon="6.39266">
        <ele>320</ele>
        <time>2026-02-02T08:26:25Z</time>
      </trkpt>
      <trkpt lat="43.54029" lon="6.39257">
        <ele>320.5</ele>
        <time>2026-02-02T08:26:39Z</time>
      </trkpt>
      <trkpt lat="43.54037" lon="6.39249">
        <ele>321</ele>
        <time>2026-02-02T08:26:51Z</time>
      </trkpt>
      <trkpt lat="43.54044" lon="6.39242">
        <ele>321</ele>
        <time>2026-02-02T08:27:01Z</time>
      </trkpt>
      <trkpt lat="43.54052" lon="6.39236">
        <ele>320.5</ele>
        <time>2026-02-02T08:27:12Z</time>
      </trkpt>
      <trkpt lat="43.54061" lon="6.39232">
        <ele>319.7</ele>
        <time>2026-02-02T08:27:22Z</time>
      </trkpt>
      <trkpt lat="43.54071" lon="6.39231">
        <ele>319</ele>
        <time>2026-02-02T08:27:32Z</time>
      </trkpt>
      <trkpt lat="43.5408" lon="6.39231">
        <ele>318.1</ele>
        <time>2026-02-02T08:27:42Z</time>
      </trkpt>
      <trkpt lat="43.54089" lon="6.39229">
        <ele>317.4</ele>
        <time>2026-02-02T08:27:51Z</time>
      </trkpt>
      <trkpt lat="43.54098" lon="6.39228">
        <ele>316.6</ele>
        <time>2026-02-02T08:28:00Z</time>
      </trkpt>
      <trkpt lat="43.54108" lon="6.39229">
        <ele>315.8</ele>
        <time>2026-02-02T08:28:10Z</time>
      </trkpt>
      <trkpt lat="43.54117" lon="6.39228">
        <ele>315.4</ele>
        <time>2026-02-02T08:28:19Z</time>
      </trkpt>
      <trkpt lat="43.54127" lon="6.39228">
        <ele>315.4</ele>
        <time>2026-02-02T08:28:29Z</time>
      </trkpt>
      <trkpt lat="43.54137" lon="6.39231">
        <ele>315.3</ele>
        <time>2026-02-02T08:28:39Z</time>
      </trkpt>
      <trkpt lat="43.54146" lon="6.39229">
        <ele>315</ele>
        <time>2026-02-02T08:28:55Z</time>
      </trkpt>
      <trkpt lat="43.54155" lon="6.39234">
        <ele>315</ele>
        <time>2026-02-02T08:29:20Z</time>
      </trkpt>
      <trkpt lat="43.54164" lon="6.39237">
        <ele>314.9</ele>
        <time>2026-02-02T08:29:31Z</time>
      </trkpt>
      <trkpt lat="43.54173" lon="6.3924">
        <ele>315.3</ele>
        <time>2026-02-02T08:29:43Z</time>
      </trkpt>
      <trkpt lat="43.54181" lon="6.39233">
        <ele>315.7</ele>
        <time>2026-02-02T08:29:53Z</time>
      </trkpt>
      <trkpt lat="43.54188" lon="6.39225">
        <ele>316.1</ele>
        <time>2026-02-02T08:30:01Z</time>
      </trkpt>
      <trkpt lat="43.54196" lon="6.3922">
        <ele>317</ele>
        <time>2026-02-02T08:30:16Z</time>
      </trkpt>
      <trkpt lat="43.54205" lon="6.39219">
        <ele>317.7</ele>
        <time>2026-02-02T08:30:26Z</time>
      </trkpt>
      <trkpt lat="43.54215" lon="6.39218">
        <ele>318</ele>
        <time>2026-02-02T08:30:36Z</time>
      </trkpt>
      <trkpt lat="43.54225" lon="6.39219">
        <ele>318.5</ele>
        <time>2026-02-02T08:30:45Z</time>
      </trkpt>
      <trkpt lat="43.54235" lon="6.39219">
        <ele>319</ele>
        <time>2026-02-02T08:30:54Z</time>
      </trkpt>
      <trkpt lat="43.54244" lon="6.39219">
        <ele>320.2</ele>
        <time>2026-02-02T08:31:07Z</time>
      </trkpt>
      <trkpt lat="43.54253" lon="6.39217">
        <ele>321.2</ele>
        <time>2026-02-02T08:31:19Z</time>
      </trkpt>
      <trkpt lat="43.54263" lon="6.39214">
        <ele>322.4</ele>
        <time>2026-02-02T08:31:29Z</time>
      </trkpt>
      <trkpt lat="43.54271" lon="6.3921">
        <ele>323.3</ele>
        <time>2026-02-02T08:31:42Z</time>
      </trkpt>
      <trkpt lat="43.54281" lon="6.39212">
        <ele>323.7</ele>
        <time>2026-02-02T08:31:49Z</time>
      </trkpt>
      <trkpt lat="43.5429" lon="6.39215">
        <ele>324.4</ele>
        <time>2026-02-02T08:31:58Z</time>
      </trkpt>
      <trkpt lat="43.543" lon="6.39212">
        <ele>324.9</ele>
        <time>2026-02-02T08:32:13Z</time>
      </trkpt>
      <trkpt lat="43.54308" lon="6.39205">
        <ele>325.5</ele>
        <time>2026-02-02T08:32:28Z</time>
      </trkpt>
      <trkpt lat="43.54315" lon="6.39197">
        <ele>326.1</ele>
        <time>2026-02-02T08:32:39Z</time>
      </trkpt>
      <trkpt lat="43.54321" lon="6.39187">
        <ele>326.4</ele>
        <time>2026-02-02T08:32:49Z</time>
      </trkpt>
      <trkpt lat="43.54327" lon="6.39176">
        <ele>327.1</ele>
        <time>2026-02-02T08:33:01Z</time>
      </trkpt>
      <trkpt lat="43.54332" lon="6.39164">
        <ele>327.7</ele>
        <time>2026-02-02T08:33:13Z</time>
      </trkpt>
      <trkpt lat="43.54338" lon="6.39154">
        <ele>328.2</ele>
        <time>2026-02-02T08:33:25Z</time>
      </trkpt>
      <trkpt lat="43.54344" lon="6.39145">
        <ele>328.8</ele>
        <time>2026-02-02T08:33:35Z</time>
      </trkpt>
      <trkpt lat="43.54352" lon="6.39138">
        <ele>329.4</ele>
        <time>2026-02-02T08:33:49Z</time>
      </trkpt>
      <trkpt lat="43.54357" lon="6.39127">
        <ele>329.9</ele>
        <time>2026-02-02T08:33:58Z</time>
      </trkpt>
      <trkpt lat="43.54362" lon="6.39116">
        <ele>330.2</ele>
        <time>2026-02-02T08:34:07Z</time>
      </trkpt>
      <trkpt lat="43.54369" lon="6.39106">
        <ele>331.1</ele>
        <time>2026-02-02T08:34:16Z</time>
      </trkpt>
      <trkpt lat="43.54378" lon="6.391">
        <ele>331.5</ele>
        <time>2026-02-02T08:34:25Z</time>
      </trkpt>
      <trkpt lat="43.54388" lon="6.391">
        <ele>331.1</ele>
        <time>2026-02-02T08:34:34Z</time>
      </trkpt>
      <trkpt lat="43.54397" lon="6.39099">
        <ele>330</ele>
        <time>2026-02-02T08:34:42Z</time>
      </trkpt>
      <trkpt lat="43.54407" lon="6.39098">
        <ele>329.4</ele>
        <time>2026-02-02T08:34:51Z</time>
      </trkpt>
      <trkpt lat="43.54417" lon="6.39098">
        <ele>328.4</ele>
        <time>2026-02-02T08:35:01Z</time>
      </trkpt>
      <trkpt lat="43.54427" lon="6.39097">
        <ele>327.7</ele>
        <time>2026-02-02T08:35:11Z</time>
      </trkpt>
      <trkpt lat="43.54436" lon="6.39095">
        <ele>327</ele>
        <time>2026-02-02T08:35:21Z</time>
      </trkpt>
      <trkpt lat="43.54444" lon="6.39091">
        <ele>326.6</ele>
        <time>2026-02-02T08:35:30Z</time>
      </trkpt>
      <trkpt lat="43.54454" lon="6.39088">
        <ele>326.2</ele>
        <time>2026-02-02T08:35:40Z</time>
      </trkpt>
      <trkpt lat="43.54463" lon="6.3909">
        <ele>325.9</ele>
        <time>2026-02-02T08:35:54Z</time>
      </trkpt>
      <trkpt lat="43.54472" lon="6.39094">
        <ele>325.7</ele>
        <time>2026-02-02T08:36:08Z</time>
      </trkpt>
      <trkpt lat="43.54481" lon="6.391">
        <ele>325.3</ele>
        <time>2026-02-02T08:36:18Z</time>
      </trkpt>
      <trkpt lat="43.54488" lon="6.39107">
        <ele>324.8</ele>
        <time>2026-02-02T08:37:16Z</time>
      </trkpt>
      <trkpt lat="43.54497" lon="6.39113">
        <ele>324.4</ele>
        <time>2026-02-02T08:37:49Z</time>
      </trkpt>
      <trkpt lat="43.54505" lon="6.39119">
        <ele>324.3</ele>
        <time>2026-02-02T08:37:59Z</time>
      </trkpt>
      <trkpt lat="43.54514" lon="6.39123">
        <ele>324.4</ele>
        <time>2026-02-02T08:38:08Z</time>
      </trkpt>
      <trkpt lat="43.54523" lon="6.39126">
        <ele>324.4</ele>
        <time>2026-02-02T08:38:17Z</time>
      </trkpt>
      <trkpt lat="43.54532" lon="6.3913">
        <ele>324.9</ele>
        <time>2026-02-02T08:38:26Z</time>
      </trkpt>
      <trkpt lat="43.5454" lon="6.39133">
        <ele>325.6</ele>
        <time>2026-02-02T08:38:35Z</time>
      </trkpt>
      <trkpt lat="43.5455" lon="6.39135">
        <ele>326.5</ele>
        <time>2026-02-02T08:38:47Z</time>
      </trkpt>
      <trkpt lat="43.54558" lon="6.3913">
        <ele>327.8</ele>
        <time>2026-02-02T08:39:00Z</time>
      </trkpt>
      <trkpt lat="43.54567" lon="6.39123">
        <ele>328.3</ele>
        <time>2026-02-02T08:39:11Z</time>
      </trkpt>
      <trkpt lat="43.54575" lon="6.39117">
        <ele>328.5</ele>
        <time>2026-02-02T08:39:20Z</time>
      </trkpt>
      <trkpt lat="43.54584" lon="6.39112">
        <ele>328.8</ele>
        <time>2026-02-02T08:39:29Z</time>
      </trkpt>
      <trkpt lat="43.54593" lon="6.39107">
        <ele>328.6</ele>
        <time>2026-02-02T08:39:40Z</time>
      </trkpt>
      <trkpt lat="43.54601" lon="6.391">
        <ele>328.8</ele>
        <time>2026-02-02T08:39:52Z</time>
      </trkpt>
      <trkpt lat="43.5461" lon="6.39095">
        <ele>329.2</ele>
        <time>2026-02-02T08:40:01Z</time>
      </trkpt>
      <trkpt lat="43.54618" lon="6.39089">
        <ele>329.7</ele>
        <time>2026-02-02T08:40:11Z</time>
      </trkpt>
      <trkpt lat="43.54627" lon="6.39083">
        <ele>329.8</ele>
        <time>2026-02-02T08:40:21Z</time>
      </trkpt>
      <trkpt lat="43.54635" lon="6.39077">
        <ele>329.9</ele>
        <time>2026-02-02T08:40:31Z</time>
      </trkpt>
      <trkpt lat="43.54643" lon="6.39068">
        <ele>329.9</ele>
        <time>2026-02-02T08:40:42Z</time>
      </trkpt>
      <trkpt lat="43.54649" lon="6.39059">
        <ele>329.7</ele>
        <time>2026-02-02T08:40:52Z</time>
      </trkpt>
      <trkpt lat="43.54655" lon="6.39049">
        <ele>329.2</ele>
        <time>2026-02-02T08:41:03Z</time>
      </trkpt>
      <trkpt lat="43.54661" lon="6.39038">
        <ele>329</ele>
        <time>2026-02-02T08:41:16Z</time>
      </trkpt>
      <trkpt lat="43.54667" lon="6.39028">
        <ele>328.7</ele>
        <time>2026-02-02T08:41:23Z</time>
      </trkpt>
      <trkpt lat="43.54674" lon="6.39019">
        <ele>328.6</ele>
        <time>2026-02-02T08:41:31Z</time>
      </trkpt>
      <trkpt lat="43.54683" lon="6.39017">
        <ele>329.2</ele>
        <time>2026-02-02T08:42:19Z</time>
      </trkpt>
      <trkpt lat="43.54686" lon="6.39005">
        <ele>329.2</ele>
        <time>2026-02-02T08:42:45Z</time>
      </trkpt>
      <trkpt lat="43.54688" lon="6.38993">
        <ele>329.7</ele>
        <time>2026-02-02T08:43:34Z</time>
      </trkpt>
      <trkpt lat="43.54696" lon="6.38984">
        <ele>330</ele>
        <time>2026-02-02T08:43:44Z</time>
      </trkpt>
      <trkpt lat="43.54702" lon="6.38974">
        <ele>330.4</ele>
        <time>2026-02-02T08:43:53Z</time>
      </trkpt>
      <trkpt lat="43.5471" lon="6.38967">
        <ele>330.8</ele>
        <time>2026-02-02T08:44:02Z</time>
      </trkpt>
      <trkpt lat="43.54716" lon="6.38957">
        <ele>331.2</ele>
        <time>2026-02-02T08:44:12Z</time>
      </trkpt>
      <trkpt lat="43.54722" lon="6.38946">
        <ele>331.7</ele>
        <time>2026-02-02T08:44:22Z</time>
      </trkpt>
      <trkpt lat="43.54727" lon="6.38935">
        <ele>332.3</ele>
        <time>2026-02-02T08:44:48Z</time>
      </trkpt>
      <trkpt lat="43.54731" lon="6.38923">
        <ele>333.2</ele>
        <time>2026-02-02T08:44:59Z</time>
      </trkpt>
      <trkpt lat="43.54736" lon="6.38913">
        <ele>333.9</ele>
        <time>2026-02-02T08:45:12Z</time>
      </trkpt>
      <trkpt lat="43.54731" lon="6.38902">
        <ele>334.7</ele>
        <time>2026-02-02T08:45:24Z</time>
      </trkpt>
      <trkpt lat="43.54741" lon="6.38898">
        <ele>335.3</ele>
        <time>2026-02-02T08:46:53Z</time>
      </trkpt>
      <trkpt lat="43.54747" lon="6.3889">
        <ele>335.7</ele>
        <time>2026-02-02T08:47:02Z</time>
      </trkpt>
      <trkpt lat="43.54754" lon="6.3888">
        <ele>336.5</ele>
        <time>2026-02-02T08:47:12Z</time>
      </trkpt>
      <trkpt lat="43.5476" lon="6.3887">
        <ele>337.4</ele>
        <time>2026-02-02T08:47:20Z</time>
      </trkpt>
      <trkpt lat="43.54765" lon="6.38859">
        <ele>338.4</ele>
        <time>2026-02-02T08:47:28Z</time>
      </trkpt>
      <trkpt lat="43.54771" lon="6.38849">
        <ele>339.4</ele>
        <time>2026-02-02T08:47:36Z</time>
      </trkpt>
      <trkpt lat="43.54778" lon="6.38841">
        <ele>340.4</ele>
        <time>2026-02-02T08:47:45Z</time>
      </trkpt>
      <trkpt lat="43.54783" lon="6.38829">
        <ele>340.8</ele>
        <time>2026-02-02T08:47:54Z</time>
      </trkpt>
      <trkpt lat="43.54789" lon="6.38818">
        <ele>341.4</ele>
        <time>2026-02-02T08:48:02Z</time>
      </trkpt>
      <trkpt lat="43.54795" lon="6.38806">
        <ele>342</ele>
        <time>2026-02-02T08:48:10Z</time>
      </trkpt>
      <trkpt lat="43.54802" lon="6.38797">
        <ele>342.1</ele>
        <time>2026-02-02T08:48:18Z</time>
      </trkpt>
      <trkpt lat="43.54806" lon="6.38786">
        <ele>342</ele>
        <time>2026-02-02T08:48:30Z</time>
      </trkpt>
      <trkpt lat="43.54814" lon="6.38779">
        <ele>342.1</ele>
        <time>2026-02-02T08:48:42Z</time>
      </trkpt>
      <trkpt lat="43.54822" lon="6.38773">
        <ele>341.9</ele>
        <time>2026-02-02T08:48:53Z</time>
      </trkpt>
      <trkpt lat="43.54832" lon="6.38777">
        <ele>341.9</ele>
        <time>2026-02-02T08:49:11Z</time>
      </trkpt>
      <trkpt lat="43.54839" lon="6.38785">
        <ele>342.1</ele>
        <time>2026-02-02T08:49:21Z</time>
      </trkpt>
      <trkpt lat="43.54849" lon="6.38787">
        <ele>342.2</ele>
        <time>2026-02-02T08:49:28Z</time>
      </trkpt>
      <trkpt lat="43.54858" lon="6.38783">
        <ele>342.8</ele>
        <time>2026-02-02T08:49:36Z</time>
      </trkpt>
      <trkpt lat="43.54865" lon="6.38773">
        <ele>343.7</ele>
        <time>2026-02-02T08:49:46Z</time>
      </trkpt>
      <trkpt lat="43.54869" lon="6.38762">
        <ele>345.3</ele>
        <time>2026-02-02T08:49:57Z</time>
      </trkpt>
      <trkpt lat="43.54875" lon="6.38751">
        <ele>346.1</ele>
        <time>2026-02-02T08:50:08Z</time>
      </trkpt>
      <trkpt lat="43.5488" lon="6.3874">
        <ele>346.6</ele>
        <time>2026-02-02T08:50:17Z</time>
      </trkpt>
      <trkpt lat="43.54885" lon="6.38728">
        <ele>347.7</ele>
        <time>2026-02-02T08:50:30Z</time>
      </trkpt>
      <trkpt lat="43.54894" lon="6.38721">
        <ele>349.1</ele>
        <time>2026-02-02T08:50:48Z</time>
      </trkpt>
      <trkpt lat="43.54901" lon="6.38714">
        <ele>350.3</ele>
        <time>2026-02-02T08:51:01Z</time>
      </trkpt>
      <trkpt lat="43.5491" lon="6.38711">
        <ele>351.6</ele>
        <time>2026-02-02T08:51:58Z</time>
      </trkpt>
      <trkpt lat="43.54919" lon="6.38707">
        <ele>352.4</ele>
        <time>2026-02-02T08:52:09Z</time>
      </trkpt>
      <trkpt lat="43.54926" lon="6.38699">
        <ele>354.5</ele>
        <time>2026-02-02T08:55:16Z</time>
      </trkpt>
      <trkpt lat="43.54932" lon="6.38689">
        <ele>356.2</ele>
        <time>2026-02-02T08:55:41Z</time>
      </trkpt>
      <trkpt lat="43.54937" lon="6.38678">
        <ele>357.5</ele>
        <time>2026-02-02T08:55:56Z</time>
      </trkpt>
      <trkpt lat="43.54944" lon="6.38671">
        <ele>358.5</ele>
        <time>2026-02-02T08:56:06Z</time>
      </trkpt>
      <trkpt lat="43.54953" lon="6.38665">
        <ele>359.8</ele>
        <time>2026-02-02T08:56:36Z</time>
      </trkpt>
      <trkpt lat="43.54963" lon="6.38664">
        <ele>360.2</ele>
        <time>2026-02-02T08:56:45Z</time>
      </trkpt>
      <trkpt lat="43.54973" lon="6.38664">
        <ele>360.4</ele>
        <time>2026-02-02T08:56:55Z</time>
      </trkpt>
      <trkpt lat="43.54982" lon="6.38664">
        <ele>360.5</ele>
        <time>2026-02-02T08:57:08Z</time>
      </trkpt>
      <trkpt lat="43.54991" lon="6.38665">
        <ele>361.4</ele>
        <time>2026-02-02T08:57:18Z</time>
      </trkpt>
      <trkpt lat="43.55" lon="6.38663">
        <ele>362.9</ele>
        <time>2026-02-02T08:57:31Z</time>
      </trkpt>
      <trkpt lat="43.5501" lon="6.38661">
        <ele>363.5</ele>
        <time>2026-02-02T08:57:38Z</time>
      </trkpt>
      <trkpt lat="43.5502" lon="6.38658">
        <ele>364.1</ele>
        <time>2026-02-02T08:57:49Z</time>
      </trkpt>
      <trkpt lat="43.55029" lon="6.38656">
        <ele>364.7</ele>
        <time>2026-02-02T08:57:59Z</time>
      </trkpt>
      <trkpt lat="43.55038" lon="6.38654">
        <ele>365.4</ele>
        <time>2026-02-02T08:58:08Z</time>
      </trkpt>
      <trkpt lat="43.55046" lon="6.38649">
        <ele>365.7</ele>
        <time>2026-02-02T08:58:18Z</time>
      </trkpt>
      <trkpt lat="43.55055" lon="6.38645">
        <ele>365.9</ele>
        <time>2026-02-02T08:58:29Z</time>
      </trkpt>
      <trkpt lat="43.55063" lon="6.38638">
        <ele>365.7</ele>
        <time>2026-02-02T08:58:42Z</time>
      </trkpt>
      <trkpt lat="43.5506" lon="6.38625">
        <ele>367.1</ele>
        <time>2026-02-02T08:59:32Z</time>
      </trkpt>
      <trkpt lat="43.55069" lon="6.3862">
        <ele>366.4</ele>
        <time>2026-02-02T09:00:41Z</time>
      </trkpt>
      <trkpt lat="43.55077" lon="6.38613">
        <ele>366.5</ele>
        <time>2026-02-02T09:00:47Z</time>
      </trkpt>
      <trkpt lat="43.55085" lon="6.38607">
        <ele>366.7</ele>
        <time>2026-02-02T09:00:53Z</time>
      </trkpt>
      <trkpt lat="43.55094" lon="6.38602">
        <ele>366.9</ele>
        <time>2026-02-02T09:01:00Z</time>
      </trkpt>
      <trkpt lat="43.55102" lon="6.38596">
        <ele>367.5</ele>
        <time>2026-02-02T09:01:09Z</time>
      </trkpt>
      <trkpt lat="43.5511" lon="6.3859">
        <ele>368.5</ele>
        <time>2026-02-02T09:01:29Z</time>
      </trkpt>
      <trkpt lat="43.5512" lon="6.38586">
        <ele>369.2</ele>
        <time>2026-02-02T09:01:39Z</time>
      </trkpt>
      <trkpt lat="43.5513" lon="6.38582">
        <ele>369.9</ele>
        <time>2026-02-02T09:01:49Z</time>
      </trkpt>
      <trkpt lat="43.55138" lon="6.38577">
        <ele>370.8</ele>
        <time>2026-02-02T09:01:57Z</time>
      </trkpt>
      <trkpt lat="43.55147" lon="6.3858">
        <ele>372.1</ele>
        <time>2026-02-02T09:02:07Z</time>
      </trkpt>
      <trkpt lat="43.55155" lon="6.38588">
        <ele>373.2</ele>
        <time>2026-02-02T09:02:16Z</time>
      </trkpt>
      <trkpt lat="43.55165" lon="6.38591">
        <ele>374.3</ele>
        <time>2026-02-02T09:02:25Z</time>
      </trkpt>
      <trkpt lat="43.55173" lon="6.38596">
        <ele>376.3</ele>
        <time>2026-02-02T09:02:40Z</time>
      </trkpt>
      <trkpt lat="43.55181" lon="6.3859">
        <ele>377.3</ele>
        <time>2026-02-02T09:02:53Z</time>
      </trkpt>
      <trkpt lat="43.5519" lon="6.38587">
        <ele>379.6</ele>
        <time>2026-02-02T09:03:17Z</time>
      </trkpt>
      <trkpt lat="43.55199" lon="6.38583">
        <ele>380.7</ele>
        <time>2026-02-02T09:03:30Z</time>
      </trkpt>
      <trkpt lat="43.55208" lon="6.38579">
        <ele>382.1</ele>
        <time>2026-02-02T09:03:49Z</time>
      </trkpt>
      <trkpt lat="43.55216" lon="6.38572">
        <ele>383.7</ele>
        <time>2026-02-02T09:04:15Z</time>
      </trkpt>
      <trkpt lat="43.55219" lon="6.38584">
        <ele>384.2</ele>
        <time>2026-02-02T09:05:11Z</time>
      </trkpt>
      <trkpt lat="43.55215" lon="6.38596">
        <ele>383.6</ele>
        <time>2026-02-02T09:05:37Z</time>
      </trkpt>
      <trkpt lat="43.55217" lon="6.38583">
        <ele>384.6</ele>
        <time>2026-02-02T09:07:17Z</time>
      </trkpt>
      <trkpt lat="43.55222" lon="6.38572">
        <ele>385</ele>
        <time>2026-02-02T09:07:31Z</time>
      </trkpt>
      <trkpt lat="43.5523" lon="6.38567">
        <ele>385.4</ele>
        <time>2026-02-02T09:07:41Z</time>
      </trkpt>
      <trkpt lat="43.55239" lon="6.38562">
        <ele>386.2</ele>
        <time>2026-02-02T09:07:50Z</time>
      </trkpt>
      <trkpt lat="43.55246" lon="6.38553">
        <ele>387.2</ele>
        <time>2026-02-02T09:08:00Z</time>
      </trkpt>
      <trkpt lat="43.55252" lon="6.38544">
        <ele>388.4</ele>
        <time>2026-02-02T09:08:09Z</time>
      </trkpt>
      <trkpt lat="43.55258" lon="6.38535">
        <ele>389.1</ele>
        <time>2026-02-02T09:08:18Z</time>
      </trkpt>
      <trkpt lat="43.55265" lon="6.38526">
        <ele>390.1</ele>
        <time>2026-02-02T09:08:35Z</time>
      </trkpt>
      <trkpt lat="43.55268" lon="6.38512">
        <ele>391.1</ele>
        <time>2026-02-02T09:08:48Z</time>
      </trkpt>
      <trkpt lat="43.55272" lon="6.38501">
        <ele>392.2</ele>
        <time>2026-02-02T09:08:57Z</time>
      </trkpt>
      <trkpt lat="43.55279" lon="6.38493">
        <ele>393.5</ele>
        <time>2026-02-02T09:09:06Z</time>
      </trkpt>
      <trkpt lat="43.55288" lon="6.38486">
        <ele>394.3</ele>
        <time>2026-02-02T09:09:15Z</time>
      </trkpt>
      <trkpt lat="43.55296" lon="6.3848">
        <ele>395.3</ele>
        <time>2026-02-02T09:09:25Z</time>
      </trkpt>
      <trkpt lat="43.55304" lon="6.38473">
        <ele>396</ele>
        <time>2026-02-02T09:09:35Z</time>
      </trkpt>
      <trkpt lat="43.55311" lon="6.38466">
        <ele>396.6</ele>
        <time>2026-02-02T09:09:45Z</time>
      </trkpt>
      <trkpt lat="43.55318" lon="6.38456">
        <ele>397.2</ele>
        <time>2026-02-02T09:09:55Z</time>
      </trkpt>
      <trkpt lat="43.55326" lon="6.38448">
        <ele>397.9</ele>
        <time>2026-02-02T09:10:07Z</time>
      </trkpt>
      <trkpt lat="43.5533" lon="6.38436">
        <ele>398.2</ele>
        <time>2026-02-02T09:10:16Z</time>
      </trkpt>
      <trkpt lat="43.55339" lon="6.3843">
        <ele>399</ele>
        <time>2026-02-02T09:10:26Z</time>
      </trkpt>
      <trkpt lat="43.55347" lon="6.38424">
        <ele>400.5</ele>
        <time>2026-02-02T09:10:38Z</time>
      </trkpt>
      <trkpt lat="43.55356" lon="6.3842">
        <ele>401.8</ele>
        <time>2026-02-02T09:10:47Z</time>
      </trkpt>
      <trkpt lat="43.55366" lon="6.38414">
        <ele>402.6</ele>
        <time>2026-02-02T09:10:56Z</time>
      </trkpt>
      <trkpt lat="43.55375" lon="6.38412">
        <ele>403.4</ele>
        <time>2026-02-02T09:11:08Z</time>
      </trkpt>
      <trkpt lat="43.55384" lon="6.38406">
        <ele>403.9</ele>
        <time>2026-02-02T09:11:17Z</time>
      </trkpt>
      <trkpt lat="43.55392" lon="6.38401">
        <ele>404.4</ele>
        <time>2026-02-02T09:11:28Z</time>
      </trkpt>
      <trkpt lat="43.55399" lon="6.38393">
        <ele>405</ele>
        <time>2026-02-02T09:11:50Z</time>
      </trkpt>
      <trkpt lat="43.55408" lon="6.38394">
        <ele>405.2</ele>
        <time>2026-02-02T09:12:18Z</time>
      </trkpt>
      <trkpt lat="43.55417" lon="6.38392">
        <ele>405.8</ele>
        <time>2026-02-02T09:12:29Z</time>
      </trkpt>
      <trkpt lat="43.55427" lon="6.38392">
        <ele>407</ele>
        <time>2026-02-02T09:12:43Z</time>
      </trkpt>
      <trkpt lat="43.55436" lon="6.38396">
        <ele>408.9</ele>
        <time>2026-02-02T09:13:33Z</time>
      </trkpt>
      <trkpt lat="43.55445" lon="6.38395">
        <ele>410.3</ele>
        <time>2026-02-02T09:13:54Z</time>
      </trkpt>
      <trkpt lat="43.55455" lon="6.38397">
        <ele>412</ele>
        <time>2026-02-02T09:14:10Z</time>
      </trkpt>
      <trkpt lat="43.55464" lon="6.38399">
        <ele>413.1</ele>
        <time>2026-02-02T09:14:19Z</time>
      </trkpt>
      <trkpt lat="43.55473" lon="6.38397">
        <ele>414.3</ele>
        <time>2026-02-02T09:14:30Z</time>
      </trkpt>
      <trkpt lat="43.55482" lon="6.38393">
        <ele>415.1</ele>
        <time>2026-02-02T09:14:39Z</time>
      </trkpt>
      <trkpt lat="43.55491" lon="6.38389">
        <ele>415.9</ele>
        <time>2026-02-02T09:14:48Z</time>
      </trkpt>
      <trkpt lat="43.555" lon="6.38388">
        <ele>417.1</ele>
        <time>2026-02-02T09:15:02Z</time>
      </trkpt>
      <trkpt lat="43.5551" lon="6.38386">
        <ele>417.7</ele>
        <time>2026-02-02T09:15:15Z</time>
      </trkpt>
      <trkpt lat="43.5552" lon="6.38383">
        <ele>417.8</ele>
        <time>2026-02-02T09:15:24Z</time>
      </trkpt>
      <trkpt lat="43.55529" lon="6.3838">
        <ele>418.4</ele>
        <time>2026-02-02T09:15:31Z</time>
      </trkpt>
      <trkpt lat="43.55538" lon="6.38376">
        <ele>418.8</ele>
        <time>2026-02-02T09:15:41Z</time>
      </trkpt>
      <trkpt lat="43.55547" lon="6.38373">
        <ele>419.5</ele>
        <time>2026-02-02T09:15:50Z</time>
      </trkpt>
      <trkpt lat="43.55556" lon="6.38372">
        <ele>419.6</ele>
        <time>2026-02-02T09:16:00Z</time>
      </trkpt>
      <trkpt lat="43.55565" lon="6.38369">
        <ele>419.8</ele>
        <time>2026-02-02T09:16:12Z</time>
      </trkpt>
      <trkpt lat="43.55575" lon="6.38366">
        <ele>419.9</ele>
        <time>2026-02-02T09:16:22Z</time>
      </trkpt>
      <trkpt lat="43.55584" lon="6.38365">
        <ele>420.2</ele>
        <time>2026-02-02T09:16:32Z</time>
      </trkpt>
      <trkpt lat="43.55593" lon="6.38364">
        <ele>420.2</ele>
        <time>2026-02-02T09:16:43Z</time>
      </trkpt>
      <trkpt lat="43.55603" lon="6.3836">
        <ele>420</ele>
        <time>2026-02-02T09:16:55Z</time>
      </trkpt>
      <trkpt lat="43.55612" lon="6.38356">
        <ele>419.8</ele>
        <time>2026-02-02T09:17:05Z</time>
      </trkpt>
      <trkpt lat="43.5562" lon="6.3835">
        <ele>419.6</ele>
        <time>2026-02-02T09:17:14Z</time>
      </trkpt>
      <trkpt lat="43.5563" lon="6.38347">
        <ele>419.2</ele>
        <time>2026-02-02T09:17:26Z</time>
      </trkpt>
      <trkpt lat="43.55638" lon="6.3834">
        <ele>419.6</ele>
        <time>2026-02-02T09:17:35Z</time>
      </trkpt>
      <trkpt lat="43.55645" lon="6.38332">
        <ele>420.1</ele>
        <time>2026-02-02T09:17:45Z</time>
      </trkpt>
      <trkpt lat="43.55654" lon="6.38325">
        <ele>420.1</ele>
        <time>2026-02-02T09:17:53Z</time>
      </trkpt>
      <trkpt lat="43.55662" lon="6.3832">
        <ele>419.8</ele>
        <time>2026-02-02T09:18:03Z</time>
      </trkpt>
      <trkpt lat="43.55671" lon="6.38315">
        <ele>420.2</ele>
        <time>2026-02-02T09:18:12Z</time>
      </trkpt>
      <trkpt lat="43.5568" lon="6.38312">
        <ele>420.4</ele>
        <time>2026-02-02T09:18:22Z</time>
      </trkpt>
      <trkpt lat="43.5569" lon="6.38308">
        <ele>420.9</ele>
        <time>2026-02-02T09:18:34Z</time>
      </trkpt>
      <trkpt lat="43.55699" lon="6.38304">
        <ele>421.6</ele>
        <time>2026-02-02T09:18:44Z</time>
      </trkpt>
      <trkpt lat="43.55708" lon="6.38303">
        <ele>421.9</ele>
        <time>2026-02-02T09:18:54Z</time>
      </trkpt>
      <trkpt lat="43.55718" lon="6.383">
        <ele>422</ele>
        <time>2026-02-02T09:19:06Z</time>
      </trkpt>
      <trkpt lat="43.55727" lon="6.38296">
        <ele>422</ele>
        <time>2026-02-02T09:19:17Z</time>
      </trkpt>
      <trkpt lat="43.55737" lon="6.38294">
        <ele>421.9</ele>
        <time>2026-02-02T09:19:28Z</time>
      </trkpt>
      <trkpt lat="43.55746" lon="6.38289">
        <ele>420.8</ele>
        <time>2026-02-02T09:19:38Z</time>
      </trkpt>
      <trkpt lat="43.55755" lon="6.38287">
        <ele>420.8</ele>
        <time>2026-02-02T09:19:48Z</time>
      </trkpt>
      <trkpt lat="43.55764" lon="6.38281">
        <ele>420.6</ele>
        <time>2026-02-02T09:19:56Z</time>
      </trkpt>
      <trkpt lat="43.55772" lon="6.38275">
        <ele>420.6</ele>
        <time>2026-02-02T09:20:04Z</time>
      </trkpt>
      <trkpt lat="43.5578" lon="6.38269">
        <ele>421.1</ele>
        <time>2026-02-02T09:20:14Z</time>
      </trkpt>
      <trkpt lat="43.55788" lon="6.38264">
        <ele>422</ele>
        <time>2026-02-02T09:20:37Z</time>
      </trkpt>
      <trkpt lat="43.55797" lon="6.38265">
        <ele>422.3</ele>
        <time>2026-02-02T09:20:52Z</time>
      </trkpt>
      <trkpt lat="43.55803" lon="6.38255">
        <ele>424.7</ele>
        <time>2026-02-02T09:21:15Z</time>
      </trkpt>
      <trkpt lat="43.55806" lon="6.38243">
        <ele>424.5</ele>
        <time>2026-02-02T09:22:13Z</time>
      </trkpt>
      <trkpt lat="43.55812" lon="6.38232">
        <ele>424.9</ele>
        <time>2026-02-02T09:23:02Z</time>
      </trkpt>
      <trkpt lat="43.55817" lon="6.3822">
        <ele>424.9</ele>
        <time>2026-02-02T09:23:14Z</time>
      </trkpt>
      <trkpt lat="43.55824" lon="6.38211">
        <ele>425.2</ele>
        <time>2026-02-02T09:23:25Z</time>
      </trkpt>
      <trkpt lat="43.5583" lon="6.38201">
        <ele>425.4</ele>
        <time>2026-02-02T09:23:36Z</time>
      </trkpt>
      <trkpt lat="43.55836" lon="6.38191">
        <ele>426.1</ele>
        <time>2026-02-02T09:24:08Z</time>
      </trkpt>
      <trkpt lat="43.55844" lon="6.38182">
        <ele>425.5</ele>
        <time>2026-02-02T09:24:25Z</time>
      </trkpt>
      <trkpt lat="43.55849" lon="6.38171">
        <ele>424.8</ele>
        <time>2026-02-02T09:24:35Z</time>
      </trkpt>
      <trkpt lat="43.55852" lon="6.38159">
        <ele>424</ele>
        <time>2026-02-02T09:24:45Z</time>
      </trkpt>
      <trkpt lat="43.55854" lon="6.38147">
        <ele>423.9</ele>
        <time>2026-02-02T09:24:54Z</time>
      </trkpt>
      <trkpt lat="43.55856" lon="6.38133">
        <ele>423.7</ele>
        <time>2026-02-02T09:25:04Z</time>
      </trkpt>
      <trkpt lat="43.55858" lon="6.3812">
        <ele>423.4</ele>
        <time>2026-02-02T09:25:14Z</time>
      </trkpt>
      <trkpt lat="43.5586" lon="6.38108">
        <ele>423.4</ele>
        <time>2026-02-02T09:25:25Z</time>
      </trkpt>
      <trkpt lat="43.55863" lon="6.38096">
        <ele>422.8</ele>
        <time>2026-02-02T09:25:55Z</time>
      </trkpt>
      <trkpt lat="43.55865" lon="6.38083">
        <ele>422.3</ele>
        <time>2026-02-02T09:26:04Z</time>
      </trkpt>
      <trkpt lat="43.55867" lon="6.3807">
        <ele>421.7</ele>
        <time>2026-02-02T09:26:15Z</time>
      </trkpt>
      <trkpt lat="43.55869" lon="6.38058">
        <ele>421.8</ele>
        <time>2026-02-02T09:26:27Z</time>
      </trkpt>
      <trkpt lat="43.55868" lon="6.38045">
        <ele>421.8</ele>
        <time>2026-02-02T09:26:40Z</time>
      </trkpt>
      <trkpt lat="43.55872" lon="6.38034">
        <ele>421.8</ele>
        <time>2026-02-02T09:26:59Z</time>
      </trkpt>
      <trkpt lat="43.55874" lon="6.3802">
        <ele>421.5</ele>
        <time>2026-02-02T09:28:01Z</time>
      </trkpt>
      <trkpt lat="43.55879" lon="6.38009">
        <ele>421.7</ele>
        <time>2026-02-02T09:28:12Z</time>
      </trkpt>
      <trkpt lat="43.55878" lon="6.37997">
        <ele>421.8</ele>
        <time>2026-02-02T09:28:25Z</time>
      </trkpt>
      <trkpt lat="43.55883" lon="6.37986">
        <ele>421.3</ele>
        <time>2026-02-02T09:28:47Z</time>
      </trkpt>
      <trkpt lat="43.55884" lon="6.37973">
        <ele>421.2</ele>
        <time>2026-02-02T09:28:56Z</time>
      </trkpt>
      <trkpt lat="43.55888" lon="6.37961">
        <ele>421.2</ele>
        <time>2026-02-02T09:29:09Z</time>
      </trkpt>
      <trkpt lat="43.55892" lon="6.37949">
        <ele>421.3</ele>
        <time>2026-02-02T09:29:19Z</time>
      </trkpt>
      <trkpt lat="43.55896" lon="6.37937">
        <ele>421.2</ele>
        <time>2026-02-02T09:29:32Z</time>
      </trkpt>
      <trkpt lat="43.55901" lon="6.37927">
        <ele>421.1</ele>
        <time>2026-02-02T09:29:40Z</time>
      </trkpt>
      <trkpt lat="43.55909" lon="6.37918">
        <ele>421.2</ele>
        <time>2026-02-02T09:29:49Z</time>
      </trkpt>
      <trkpt lat="43.55915" lon="6.37907">
        <ele>421.3</ele>
        <time>2026-02-02T09:29:58Z</time>
      </trkpt>
      <trkpt lat="43.5592" lon="6.37895">
        <ele>422</ele>
        <time>2026-02-02T09:30:07Z</time>
      </trkpt>
      <trkpt lat="43.55925" lon="6.37883">
        <ele>422.6</ele>
        <time>2026-02-02T09:30:16Z</time>
      </trkpt>
      <trkpt lat="43.55931" lon="6.37873">
        <ele>423.1</ele>
        <time>2026-02-02T09:30:25Z</time>
      </trkpt>
      <trkpt lat="43.55941" lon="6.37871">
        <ele>423.7</ele>
        <time>2026-02-02T09:30:35Z</time>
      </trkpt>
      <trkpt lat="43.5595" lon="6.37874">
        <ele>424</ele>
        <time>2026-02-02T09:30:45Z</time>
      </trkpt>
      <trkpt lat="43.55959" lon="6.37878">
        <ele>424</ele>
        <time>2026-02-02T09:30:55Z</time>
      </trkpt>
      <trkpt lat="43.55966" lon="6.37886">
        <ele>424.9</ele>
        <time>2026-02-02T09:31:06Z</time>
      </trkpt>
      <trkpt lat="43.55974" lon="6.37893">
        <ele>425.1</ele>
        <time>2026-02-02T09:31:23Z</time>
      </trkpt>
      <trkpt lat="43.55982" lon="6.37899">
        <ele>425.1</ele>
        <time>2026-02-02T09:31:34Z</time>
      </trkpt>
      <trkpt lat="43.55991" lon="6.37896">
        <ele>425.1</ele>
        <time>2026-02-02T09:33:55Z</time>
      </trkpt>
      <trkpt lat="43.55997" lon="6.37885">
        <ele>425.9</ele>
        <time>2026-02-02T09:35:02Z</time>
      </trkpt>
      <trkpt lat="43.56002" lon="6.37874">
        <ele>427</ele>
        <time>2026-02-02T09:35:10Z</time>
      </trkpt>
      <trkpt lat="43.5601" lon="6.37871">
        <ele>429.3</ele>
        <time>2026-02-02T09:35:23Z</time>
      </trkpt>
      <trkpt lat="43.56019" lon="6.37875">
        <ele>430.2</ele>
        <time>2026-02-02T09:35:31Z</time>
      </trkpt>
      <trkpt lat="43.56027" lon="6.37882">
        <ele>429.8</ele>
        <time>2026-02-02T09:35:38Z</time>
      </trkpt>
      <trkpt lat="43.56035" lon="6.3789">
        <ele>429.3</ele>
        <time>2026-02-02T09:35:46Z</time>
      </trkpt>
      <trkpt lat="43.56041" lon="6.379">
        <ele>429.4</ele>
        <time>2026-02-02T09:35:56Z</time>
      </trkpt>
      <trkpt lat="43.56047" lon="6.3791">
        <ele>429.2</ele>
        <time>2026-02-02T09:36:07Z</time>
      </trkpt>
      <trkpt lat="43.56053" lon="6.3792">
        <ele>429</ele>
        <time>2026-02-02T09:36:16Z</time>
      </trkpt>
      <trkpt lat="43.5606" lon="6.37929">
        <ele>429</ele>
        <time>2026-02-02T09:36:27Z</time>
      </trkpt>
      <trkpt lat="43.56067" lon="6.37938">
        <ele>429.8</ele>
        <time>2026-02-02T09:36:37Z</time>
      </trkpt>
      <trkpt lat="43.56067" lon="6.37951">
        <ele>430.6</ele>
        <time>2026-02-02T09:37:01Z</time>
      </trkpt>
      <trkpt lat="43.56066" lon="6.37964">
        <ele>430.2</ele>
        <time>2026-02-02T09:37:12Z</time>
      </trkpt>
      <trkpt lat="43.56063" lon="6.37976">
        <ele>429.9</ele>
        <time>2026-02-02T09:37:22Z</time>
      </trkpt>
      <trkpt lat="43.56061" lon="6.37989">
        <ele>429.4</ele>
        <time>2026-02-02T09:37:35Z</time>
      </trkpt>
      <trkpt lat="43.56057" lon="6.38001">
        <ele>429.6</ele>
        <time>2026-02-02T09:37:45Z</time>
      </trkpt>
      <trkpt lat="43.56057" lon="6.38014">
        <ele>429.7</ele>
        <time>2026-02-02T09:37:57Z</time>
      </trkpt>
      <trkpt lat="43.5606" lon="6.38026">
        <ele>429.7</ele>
        <time>2026-02-02T09:38:08Z</time>
      </trkpt>
      <trkpt lat="43.56065" lon="6.38037">
        <ele>429.7</ele>
        <time>2026-02-02T09:38:20Z</time>
      </trkpt>
      <trkpt lat="43.56071" lon="6.38046">
        <ele>429.7</ele>
        <time>2026-02-02T09:38:30Z</time>
      </trkpt>
      <trkpt lat="43.56079" lon="6.38052">
        <ele>430.7</ele>
        <time>2026-02-02T09:38:40Z</time>
      </trkpt>
      <trkpt lat="43.56081" lon="6.38065">
        <ele>431.2</ele>
        <time>2026-02-02T09:39:42Z</time>
      </trkpt>
      <trkpt lat="43.5609" lon="6.38069">
        <ele>431.7</ele>
        <time>2026-02-02T09:40:19Z</time>
      </trkpt>
      <trkpt lat="43.56097" lon="6.38076">
        <ele>432.3</ele>
        <time>2026-02-02T09:40:44Z</time>
      </trkpt>
      <trkpt lat="43.56106" lon="6.38081">
        <ele>431.6</ele>
        <time>2026-02-02T09:42:42Z</time>
      </trkpt>
      <trkpt lat="43.56111" lon="6.38092">
        <ele>431.1</ele>
        <time>2026-02-02T09:42:52Z</time>
      </trkpt>
      <trkpt lat="43.56116" lon="6.38103">
        <ele>431.1</ele>
        <time>2026-02-02T09:43:02Z</time>
      </trkpt>
      <trkpt lat="43.56118" lon="6.38116">
        <ele>431</ele>
        <time>2026-02-02T09:43:14Z</time>
      </trkpt>
      <trkpt lat="43.56119" lon="6.38128">
        <ele>431.1</ele>
        <time>2026-02-02T09:43:24Z</time>
      </trkpt>
      <trkpt lat="43.5612" lon="6.38141">
        <ele>431.2</ele>
        <time>2026-02-02T09:43:35Z</time>
      </trkpt>
      <trkpt lat="43.5612" lon="6.38154">
        <ele>431.8</ele>
        <time>2026-02-02T09:43:56Z</time>
      </trkpt>
      <trkpt lat="43.56129" lon="6.38147">
        <ele>432.7</ele>
        <time>2026-02-02T09:44:23Z</time>
      </trkpt>
      <trkpt lat="43.56137" lon="6.38142">
        <ele>434.8</ele>
        <time>2026-02-02T09:44:36Z</time>
      </trkpt>
      <trkpt lat="43.56145" lon="6.38134">
        <ele>436.7</ele>
        <time>2026-02-02T09:44:50Z</time>
      </trkpt>
      <trkpt lat="43.56151" lon="6.38125">
        <ele>438.3</ele>
        <time>2026-02-02T09:45:01Z</time>
      </trkpt>
      <trkpt lat="43.56157" lon="6.38114">
        <ele>439.2</ele>
        <time>2026-02-02T09:45:12Z</time>
      </trkpt>
      <trkpt lat="43.56162" lon="6.38103">
        <ele>440.1</ele>
        <time>2026-02-02T09:45:22Z</time>
      </trkpt>
      <trkpt lat="43.56168" lon="6.38093">
        <ele>440.7</ele>
        <time>2026-02-02T09:45:34Z</time>
      </trkpt>
      <trkpt lat="43.56171" lon="6.3808">
        <ele>440.4</ele>
        <time>2026-02-02T09:47:08Z</time>
      </trkpt>
      <trkpt lat="43.56174" lon="6.38068">
        <ele>439.8</ele>
        <time>2026-02-02T09:47:40Z</time>
      </trkpt>
      <trkpt lat="43.5618" lon="6.38059">
        <ele>440.5</ele>
        <time>2026-02-02T09:47:53Z</time>
      </trkpt>
      <trkpt lat="43.56186" lon="6.38049">
        <ele>441.7</ele>
        <time>2026-02-02T09:48:04Z</time>
      </trkpt>
      <trkpt lat="43.56188" lon="6.38036">
        <ele>442.3</ele>
        <time>2026-02-02T09:48:23Z</time>
      </trkpt>
      <trkpt lat="43.56192" lon="6.38025">
        <ele>442.4</ele>
        <time>2026-02-02T09:48:35Z</time>
      </trkpt>
      <trkpt lat="43.56199" lon="6.38015">
        <ele>442.9</ele>
        <time>2026-02-02T09:48:47Z</time>
      </trkpt>
      <trkpt lat="43.56205" lon="6.38006">
        <ele>444.4</ele>
        <time>2026-02-02T09:49:02Z</time>
      </trkpt>
      <trkpt lat="43.56211" lon="6.37995">
        <ele>445.7</ele>
        <time>2026-02-02T09:49:15Z</time>
      </trkpt>
      <trkpt lat="43.56218" lon="6.37985">
        <ele>446.7</ele>
        <time>2026-02-02T09:49:27Z</time>
      </trkpt>
      <trkpt lat="43.56224" lon="6.37975">
        <ele>448.1</ele>
        <time>2026-02-02T09:49:49Z</time>
      </trkpt>
      <trkpt lat="43.56229" lon="6.37964">
        <ele>449</ele>
        <time>2026-02-02T09:50:03Z</time>
      </trkpt>
      <trkpt lat="43.56236" lon="6.37956">
        <ele>450.4</ele>
        <time>2026-02-02T09:50:17Z</time>
      </trkpt>
      <trkpt lat="43.56244" lon="6.3795">
        <ele>451.2</ele>
        <time>2026-02-02T09:50:29Z</time>
      </trkpt>
      <trkpt lat="43.56253" lon="6.37945">
        <ele>452.4</ele>
        <time>2026-02-02T09:50:42Z</time>
      </trkpt>
      <trkpt lat="43.56259" lon="6.37936">
        <ele>454.5</ele>
        <time>2026-02-02T09:51:01Z</time>
      </trkpt>
      <trkpt lat="43.56264" lon="6.37925">
        <ele>455.8</ele>
        <time>2026-02-02T09:51:17Z</time>
      </trkpt>
      <trkpt lat="43.56268" lon="6.37913">
        <ele>457.5</ele>
        <time>2026-02-02T09:51:28Z</time>
      </trkpt>
      <trkpt lat="43.56274" lon="6.37903">
        <ele>458.8</ele>
        <time>2026-02-02T09:51:44Z</time>
      </trkpt>
      <trkpt lat="43.5628" lon="6.37894">
        <ele>460</ele>
        <time>2026-02-02T09:51:58Z</time>
      </trkpt>
      <trkpt lat="43.56287" lon="6.37884">
        <ele>461.2</ele>
        <time>2026-02-02T09:52:14Z</time>
      </trkpt>
      <trkpt lat="43.56297" lon="6.37881">
        <ele>462.1</ele>
        <time>2026-02-02T09:52:28Z</time>
      </trkpt>
      <trkpt lat="43.56305" lon="6.37874">
        <ele>462.5</ele>
        <time>2026-02-02T09:52:40Z</time>
      </trkpt>
      <trkpt lat="43.5631" lon="6.37862">
        <ele>463.1</ele>
        <time>2026-02-02T09:52:57Z</time>
      </trkpt>
      <trkpt lat="43.56315" lon="6.37852">
        <ele>463.9</ele>
        <time>2026-02-02T09:53:07Z</time>
      </trkpt>
      <trkpt lat="43.56317" lon="6.37839">
        <ele>464.6</ele>
        <time>2026-02-02T09:53:19Z</time>
      </trkpt>
      <trkpt lat="43.5632" lon="6.37828">
        <ele>466</ele>
        <time>2026-02-02T09:53:34Z</time>
      </trkpt>
      <trkpt lat="43.56323" lon="6.37815">
        <ele>467.1</ele>
        <time>2026-02-02T09:53:49Z</time>
      </trkpt>
      <trkpt lat="43.56327" lon="6.37803">
        <ele>467.9</ele>
        <time>2026-02-02T09:53:59Z</time>
      </trkpt>
      <trkpt lat="43.56331" lon="6.3779">
        <ele>468.9</ele>
        <time>2026-02-02T09:54:09Z</time>
      </trkpt>
      <trkpt lat="43.56334" lon="6.37777">
        <ele>470</ele>
        <time>2026-02-02T09:54:20Z</time>
      </trkpt>
      <trkpt lat="43.56335" lon="6.37763">
        <ele>471.5</ele>
        <time>2026-02-02T09:54:32Z</time>
      </trkpt>
      <trkpt lat="43.56335" lon="6.3775">
        <ele>472.5</ele>
        <time>2026-02-02T09:54:47Z</time>
      </trkpt>
      <trkpt lat="43.56341" lon="6.3774">
        <ele>473.6</ele>
        <time>2026-02-02T09:54:59Z</time>
      </trkpt>
      <trkpt lat="43.56343" lon="6.37728">
        <ele>474.8</ele>
        <time>2026-02-02T09:55:15Z</time>
      </trkpt>
      <trkpt lat="43.56349" lon="6.37717">
        <ele>475.5</ele>
        <time>2026-02-02T09:55:40Z</time>
      </trkpt>
      <trkpt lat="43.56349" lon="6.37703">
        <ele>475.7</ele>
        <time>2026-02-02T09:55:59Z</time>
      </trkpt>
      <trkpt lat="43.56353" lon="6.37691">
        <ele>476.4</ele>
        <time>2026-02-02T09:56:15Z</time>
      </trkpt>
      <trkpt lat="43.56356" lon="6.37679">
        <ele>477.1</ele>
        <time>2026-02-02T09:56:26Z</time>
      </trkpt>
      <trkpt lat="43.56363" lon="6.3767">
        <ele>477.2</ele>
        <time>2026-02-02T09:57:26Z</time>
      </trkpt>
      <trkpt lat="43.56365" lon="6.37657">
        <ele>478</ele>
        <time>2026-02-02T09:57:37Z</time>
      </trkpt>
      <trkpt lat="43.56369" lon="6.37645">
        <ele>479</ele>
        <time>2026-02-02T09:57:51Z</time>
      </trkpt>
      <trkpt lat="43.56373" lon="6.37633">
        <ele>480.4</ele>
        <time>2026-02-02T09:58:05Z</time>
      </trkpt>
      <trkpt lat="43.56377" lon="6.37621">
        <ele>482.5</ele>
        <time>2026-02-02T09:58:28Z</time>
      </trkpt>
      <trkpt lat="43.56383" lon="6.37612">
        <ele>483.5</ele>
        <time>2026-02-02T10:00:18Z</time>
      </trkpt>
      <trkpt lat="43.5639" lon="6.37603">
        <ele>485.1</ele>
        <time>2026-02-02T10:00:34Z</time>
      </trkpt>
      <trkpt lat="43.56396" lon="6.37593">
        <ele>486.5</ele>
        <time>2026-02-02T10:00:51Z</time>
      </trkpt>
      <trkpt lat="43.56402" lon="6.37582">
        <ele>487.4</ele>
        <time>2026-02-02T10:01:03Z</time>
      </trkpt>
      <trkpt lat="43.56408" lon="6.37573">
        <ele>488.3</ele>
        <time>2026-02-02T10:01:15Z</time>
      </trkpt>
      <trkpt lat="43.56412" lon="6.37561">
        <ele>489.4</ele>
        <time>2026-02-02T10:01:33Z</time>
      </trkpt>
      <trkpt lat="43.56416" lon="6.3755">
        <ele>490.1</ele>
        <time>2026-02-02T10:01:43Z</time>
      </trkpt>
      <trkpt lat="43.56421" lon="6.37539">
        <ele>490.8</ele>
        <time>2026-02-02T10:01:59Z</time>
      </trkpt>
      <trkpt lat="43.56425" lon="6.37527">
        <ele>491.5</ele>
        <time>2026-02-02T10:02:11Z</time>
      </trkpt>
      <trkpt lat="43.56431" lon="6.37518">
        <ele>491.9</ele>
        <time>2026-02-02T10:02:28Z</time>
      </trkpt>
      <trkpt lat="43.56434" lon="6.3753">
        <ele>491.8</ele>
        <time>2026-02-02T10:02:54Z</time>
      </trkpt>
      <trkpt lat="43.56438" lon="6.37541">
        <ele>491.5</ele>
        <time>2026-02-02T10:03:08Z</time>
      </trkpt>
      <trkpt lat="43.56433" lon="6.37531">
        <ele>492.2</ele>
        <time>2026-02-02T10:04:48Z</time>
      </trkpt>
      <trkpt lat="43.56436" lon="6.37518">
        <ele>492.5</ele>
        <time>2026-02-02T10:05:11Z</time>
      </trkpt>
      <trkpt lat="43.5644" lon="6.37507">
        <ele>493.3</ele>
        <time>2026-02-02T10:06:18Z</time>
      </trkpt>
      <trkpt lat="43.56446" lon="6.37496">
        <ele>493.7</ele>
        <time>2026-02-02T10:06:33Z</time>
      </trkpt>
      <trkpt lat="43.56452" lon="6.37485">
        <ele>494.1</ele>
        <time>2026-02-02T10:06:45Z</time>
      </trkpt>
      <trkpt lat="43.56457" lon="6.37474">
        <ele>494.3</ele>
        <time>2026-02-02T10:06:57Z</time>
      </trkpt>
      <trkpt lat="43.56459" lon="6.37462">
        <ele>494.9</ele>
        <time>2026-02-02T10:07:15Z</time>
      </trkpt>
      <trkpt lat="43.56465" lon="6.37452">
        <ele>495.2</ele>
        <time>2026-02-02T10:07:26Z</time>
      </trkpt>
      <trkpt lat="43.56472" lon="6.37443">
        <ele>495.8</ele>
        <time>2026-02-02T10:07:36Z</time>
      </trkpt>
      <trkpt lat="43.56476" lon="6.37431">
        <ele>496.3</ele>
        <time>2026-02-02T10:07:48Z</time>
      </trkpt>
      <trkpt lat="43.56485" lon="6.37429">
        <ele>497</ele>
        <time>2026-02-02T10:08:04Z</time>
      </trkpt>
      <trkpt lat="43.56488" lon="6.37417">
        <ele>497.2</ele>
        <time>2026-02-02T10:08:33Z</time>
      </trkpt>
      <trkpt lat="43.56494" lon="6.37406">
        <ele>497.3</ele>
        <time>2026-02-02T10:08:44Z</time>
      </trkpt>
      <trkpt lat="43.56499" lon="6.37395">
        <ele>497.5</ele>
        <time>2026-02-02T10:08:55Z</time>
      </trkpt>
      <trkpt lat="43.56506" lon="6.37385">
        <ele>497.6</ele>
        <time>2026-02-02T10:09:05Z</time>
      </trkpt>
      <trkpt lat="43.56512" lon="6.37375">
        <ele>497.5</ele>
        <time>2026-02-02T10:09:15Z</time>
      </trkpt>
      <trkpt lat="43.56518" lon="6.37366">
        <ele>497.5</ele>
        <time>2026-02-02T10:09:24Z</time>
      </trkpt>
      <trkpt lat="43.56522" lon="6.37354">
        <ele>497.6</ele>
        <time>2026-02-02T10:09:34Z</time>
      </trkpt>
      <trkpt lat="43.56527" lon="6.37343">
        <ele>497.3</ele>
        <time>2026-02-02T10:09:47Z</time>
      </trkpt>
      <trkpt lat="43.56533" lon="6.37333">
        <ele>496.7</ele>
        <time>2026-02-02T10:09:57Z</time>
      </trkpt>
      <trkpt lat="43.56535" lon="6.3732">
        <ele>494.7</ele>
        <time>2026-02-02T10:10:07Z</time>
      </trkpt>
      <trkpt lat="43.56538" lon="6.37308">
        <ele>492.7</ele>
        <time>2026-02-02T10:10:17Z</time>
      </trkpt>
      <trkpt lat="43.56547" lon="6.37307">
        <ele>491</ele>
        <time>2026-02-02T10:10:30Z</time>
      </trkpt>
      <trkpt lat="43.56551" lon="6.37296">
        <ele>488.8</ele>
        <time>2026-02-02T10:10:48Z</time>
      </trkpt>
      <trkpt lat="43.56547" lon="6.37285">
        <ele>487.1</ele>
        <time>2026-02-02T10:11:01Z</time>
      </trkpt>
      <trkpt lat="43.56549" lon="6.37272">
        <ele>486.8</ele>
        <time>2026-02-02T10:11:13Z</time>
      </trkpt>
      <trkpt lat="43.56552" lon="6.37261">
        <ele>487.4</ele>
        <time>2026-02-02T10:11:44Z</time>
      </trkpt>
      <trkpt lat="43.56551" lon="6.37248">
        <ele>488.1</ele>
        <time>2026-02-02T10:11:58Z</time>
      </trkpt>
      <trkpt lat="43.5655" lon="6.37234">
        <ele>487.7</ele>
        <time>2026-02-02T10:12:07Z</time>
      </trkpt>
      <trkpt lat="43.56547" lon="6.37222">
        <ele>487.3</ele>
        <time>2026-02-02T10:12:27Z</time>
      </trkpt>
      <trkpt lat="43.5654" lon="6.37213">
        <ele>487.1</ele>
        <time>2026-02-02T10:12:39Z</time>
      </trkpt>
      <trkpt lat="43.56534" lon="6.37202">
        <ele>486.9</ele>
        <time>2026-02-02T10:12:48Z</time>
      </trkpt>
      <trkpt lat="43.56528" lon="6.37192">
        <ele>486.6</ele>
        <time>2026-02-02T10:13:05Z</time>
      </trkpt>
      <trkpt lat="43.56523" lon="6.37181">
        <ele>486.1</ele>
        <time>2026-02-02T10:13:19Z</time>
      </trkpt>
      <trkpt lat="43.56518" lon="6.3717">
        <ele>485.8</ele>
        <time>2026-02-02T10:13:31Z</time>
      </trkpt>
      <trkpt lat="43.56513" lon="6.37159">
        <ele>485</ele>
        <time>2026-02-02T10:13:43Z</time>
      </trkpt>
      <trkpt lat="43.56512" lon="6.37146">
        <ele>484</ele>
        <time>2026-02-02T10:13:58Z</time>
      </trkpt>
      <trkpt lat="43.56512" lon="6.37133">
        <ele>483.5</ele>
        <time>2026-02-02T10:14:12Z</time>
      </trkpt>
      <trkpt lat="43.56514" lon="6.3712">
        <ele>482.9</ele>
        <time>2026-02-02T10:14:22Z</time>
      </trkpt>
      <trkpt lat="43.56518" lon="6.37109">
        <ele>483</ele>
        <time>2026-02-02T10:14:33Z</time>
      </trkpt>
      <trkpt lat="43.56524" lon="6.37099">
        <ele>483.5</ele>
        <time>2026-02-02T10:14:45Z</time>
      </trkpt>
      <trkpt lat="43.56527" lon="6.37087">
        <ele>483.5</ele>
        <time>2026-02-02T10:14:57Z</time>
      </trkpt>
      <trkpt lat="43.56533" lon="6.37077">
        <ele>483.7</ele>
        <time>2026-02-02T10:15:08Z</time>
      </trkpt>
      <trkpt lat="43.56536" lon="6.37064">
        <ele>484.3</ele>
        <time>2026-02-02T10:15:21Z</time>
      </trkpt>
      <trkpt lat="43.56542" lon="6.37053">
        <ele>485.9</ele>
        <time>2026-02-02T10:15:37Z</time>
      </trkpt>
      <trkpt lat="43.56546" lon="6.37041">
        <ele>486.9</ele>
        <time>2026-02-02T10:15:50Z</time>
      </trkpt>
      <trkpt lat="43.56553" lon="6.37033">
        <ele>487.8</ele>
        <time>2026-02-02T10:16:04Z</time>
      </trkpt>
      <trkpt lat="43.56558" lon="6.37021">
        <ele>488.5</ele>
        <time>2026-02-02T10:16:16Z</time>
      </trkpt>
      <trkpt lat="43.56562" lon="6.3701">
        <ele>489.6</ele>
        <time>2026-02-02T10:16:39Z</time>
      </trkpt>
      <trkpt lat="43.56566" lon="6.36998">
        <ele>491.1</ele>
        <time>2026-02-02T10:16:57Z</time>
      </trkpt>
      <trkpt lat="43.56572" lon="6.36988">
        <ele>491.5</ele>
        <time>2026-02-02T10:17:10Z</time>
      </trkpt>
      <trkpt lat="43.56579" lon="6.36979">
        <ele>492.2</ele>
        <time>2026-02-02T10:17:24Z</time>
      </trkpt>
      <trkpt lat="43.56584" lon="6.36968">
        <ele>492.9</ele>
        <time>2026-02-02T10:17:34Z</time>
      </trkpt>
      <trkpt lat="43.56591" lon="6.3696">
        <ele>493.7</ele>
        <time>2026-02-02T10:17:51Z</time>
      </trkpt>
      <trkpt lat="43.56598" lon="6.36951">
        <ele>493.5</ele>
        <time>2026-02-02T10:18:00Z</time>
      </trkpt>
      <trkpt lat="43.56605" lon="6.36944">
        <ele>493.1</ele>
        <time>2026-02-02T10:18:10Z</time>
      </trkpt>
      <trkpt lat="43.56613" lon="6.36937">
        <ele>493.3</ele>
        <time>2026-02-02T10:18:26Z</time>
      </trkpt>
      <trkpt lat="43.56616" lon="6.36925">
        <ele>493.9</ele>
        <time>2026-02-02T10:19:03Z</time>
      </trkpt>
      <trkpt lat="43.5662" lon="6.36913">
        <ele>494.4</ele>
        <time>2026-02-02T10:19:52Z</time>
      </trkpt>
      <trkpt lat="43.56621" lon="6.36901">
        <ele>493.2</ele>
        <time>2026-02-02T10:20:14Z</time>
      </trkpt>
      <trkpt lat="43.56629" lon="6.36894">
        <ele>492.7</ele>
        <time>2026-02-02T10:21:28Z</time>
      </trkpt>
      <trkpt lat="43.56626" lon="6.36882">
        <ele>493.7</ele>
        <time>2026-02-02T10:24:19Z</time>
      </trkpt>
      <trkpt lat="43.56628" lon="6.36869">
        <ele>492.5</ele>
        <time>2026-02-02T10:24:31Z</time>
      </trkpt>
      <trkpt lat="43.56628" lon="6.36857">
        <ele>490</ele>
        <time>2026-02-02T10:24:51Z</time>
      </trkpt>
      <trkpt lat="43.56621" lon="6.36847">
        <ele>489.1</ele>
        <time>2026-02-02T10:25:05Z</time>
      </trkpt>
      <trkpt lat="43.56618" lon="6.36835">
        <ele>487.7</ele>
        <time>2026-02-02T10:25:16Z</time>
      </trkpt>
      <trkpt lat="43.56618" lon="6.36822">
        <ele>487.2</ele>
        <time>2026-02-02T10:25:27Z</time>
      </trkpt>
      <trkpt lat="43.56623" lon="6.3681">
        <ele>486.3</ele>
        <time>2026-02-02T10:25:40Z</time>
      </trkpt>
      <trkpt lat="43.56626" lon="6.36798">
        <ele>484</ele>
        <time>2026-02-02T10:25:52Z</time>
      </trkpt>
      <trkpt lat="43.5663" lon="6.36786">
        <ele>482.6</ele>
        <time>2026-02-02T10:26:02Z</time>
      </trkpt>
      <trkpt lat="43.56635" lon="6.36775">
        <ele>481.5</ele>
        <time>2026-02-02T10:26:12Z</time>
      </trkpt>
      <trkpt lat="43.56639" lon="6.36763">
        <ele>481</ele>
        <time>2026-02-02T10:26:23Z</time>
      </trkpt>
      <trkpt lat="43.56641" lon="6.3675">
        <ele>481</ele>
        <time>2026-02-02T10:26:34Z</time>
      </trkpt>
      <trkpt lat="43.56639" lon="6.36738">
        <ele>481.5</ele>
        <time>2026-02-02T10:27:59Z</time>
      </trkpt>
      <trkpt lat="43.56631" lon="6.3673">
        <ele>481.7</ele>
        <time>2026-02-02T10:29:56Z</time>
      </trkpt>
      <trkpt lat="43.56624" lon="6.36723">
        <ele>481.5</ele>
        <time>2026-02-02T10:30:06Z</time>
      </trkpt>
      <trkpt lat="43.56619" lon="6.36713">
        <ele>481</ele>
        <time>2026-02-02T10:30:16Z</time>
      </trkpt>
      <trkpt lat="43.56612" lon="6.36704">
        <ele>480.8</ele>
        <time>2026-02-02T10:30:26Z</time>
      </trkpt>
      <trkpt lat="43.56606" lon="6.36694">
        <ele>480.2</ele>
        <time>2026-02-02T10:30:35Z</time>
      </trkpt>
      <trkpt lat="43.56599" lon="6.36684">
        <ele>479.7</ele>
        <time>2026-02-02T10:30:45Z</time>
      </trkpt>
      <trkpt lat="43.56593" lon="6.36674">
        <ele>479</ele>
        <time>2026-02-02T10:30:55Z</time>
      </trkpt>
      <trkpt lat="43.56586" lon="6.36664">
        <ele>478.5</ele>
        <time>2026-02-02T10:31:05Z</time>
      </trkpt>
      <trkpt lat="43.56581" lon="6.36654">
        <ele>477.9</ele>
        <time>2026-02-02T10:31:16Z</time>
      </trkpt>
      <trkpt lat="43.56575" lon="6.36644">
        <ele>477.1</ele>
        <time>2026-02-02T10:31:26Z</time>
      </trkpt>
      <trkpt lat="43.56568" lon="6.36634">
        <ele>476.5</ele>
        <time>2026-02-02T10:31:36Z</time>
      </trkpt>
      <trkpt lat="43.5656" lon="6.36627">
        <ele>476.1</ele>
        <time>2026-02-02T10:31:46Z</time>
      </trkpt>
      <trkpt lat="43.56551" lon="6.3663">
        <ele>475.5</ele>
        <time>2026-02-02T10:32:17Z</time>
      </trkpt>
      <trkpt lat="43.56546" lon="6.3664">
        <ele>475.8</ele>
        <time>2026-02-02T10:32:29Z</time>
      </trkpt>
      <trkpt lat="43.56541" lon="6.36651">
        <ele>475.7</ele>
        <time>2026-02-02T10:32:40Z</time>
      </trkpt>
      <trkpt lat="43.56534" lon="6.3666">
        <ele>475.9</ele>
        <time>2026-02-02T10:32:48Z</time>
      </trkpt>
      <trkpt lat="43.56529" lon="6.36669">
        <ele>476.3</ele>
        <time>2026-02-02T10:32:56Z</time>
      </trkpt>
      <trkpt lat="43.56524" lon="6.3668">
        <ele>476.6</ele>
        <time>2026-02-02T10:33:06Z</time>
      </trkpt>
      <trkpt lat="43.56518" lon="6.36691">
        <ele>476.4</ele>
        <time>2026-02-02T10:33:15Z</time>
      </trkpt>
      <trkpt lat="43.56514" lon="6.36703">
        <ele>475.9</ele>
        <time>2026-02-02T10:33:25Z</time>
      </trkpt>
      <trkpt lat="43.56513" lon="6.36717">
        <ele>475.2</ele>
        <time>2026-02-02T10:33:35Z</time>
      </trkpt>
      <trkpt lat="43.56508" lon="6.36727">
        <ele>474.7</ele>
        <time>2026-02-02T10:33:44Z</time>
      </trkpt>
      <trkpt lat="43.56499" lon="6.36735">
        <ele>473.7</ele>
        <time>2026-02-02T10:33:53Z</time>
      </trkpt>
      <trkpt lat="43.56491" lon="6.36741">
        <ele>472.5</ele>
        <time>2026-02-02T10:34:03Z</time>
      </trkpt>
      <trkpt lat="43.56482" lon="6.36746">
        <ele>471.8</ele>
        <time>2026-02-02T10:34:12Z</time>
      </trkpt>
      <trkpt lat="43.56473" lon="6.36749">
        <ele>471.2</ele>
        <time>2026-02-02T10:34:20Z</time>
      </trkpt>
      <trkpt lat="43.56464" lon="6.36751">
        <ele>470.7</ele>
        <time>2026-02-02T10:34:28Z</time>
      </trkpt>
      <trkpt lat="43.56455" lon="6.36756">
        <ele>470.2</ele>
        <time>2026-02-02T10:34:37Z</time>
      </trkpt>
      <trkpt lat="43.56446" lon="6.36758">
        <ele>469.8</ele>
        <time>2026-02-02T10:34:47Z</time>
      </trkpt>
      <trkpt lat="43.56437" lon="6.36762">
        <ele>469.3</ele>
        <time>2026-02-02T10:35:01Z</time>
      </trkpt>
      <trkpt lat="43.56427" lon="6.36765">
        <ele>469.1</ele>
        <time>2026-02-02T10:35:10Z</time>
      </trkpt>
      <trkpt lat="43.56419" lon="6.36768">
        <ele>469</ele>
        <time>2026-02-02T10:35:21Z</time>
      </trkpt>
      <trkpt lat="43.56409" lon="6.36769">
        <ele>468.9</ele>
        <time>2026-02-02T10:35:41Z</time>
      </trkpt>
      <trkpt lat="43.56402" lon="6.36776">
        <ele>468.8</ele>
        <time>2026-02-02T10:35:53Z</time>
      </trkpt>
      <trkpt lat="43.56393" lon="6.36781">
        <ele>468.6</ele>
        <time>2026-02-02T10:36:01Z</time>
      </trkpt>
      <trkpt lat="43.56385" lon="6.36788">
        <ele>468.5</ele>
        <time>2026-02-02T10:36:09Z</time>
      </trkpt>
      <trkpt lat="43.56378" lon="6.36797">
        <ele>468.4</ele>
        <time>2026-02-02T10:36:17Z</time>
      </trkpt>
      <trkpt lat="43.5637" lon="6.36805">
        <ele>468.1</ele>
        <time>2026-02-02T10:36:25Z</time>
      </trkpt>
      <trkpt lat="43.56363" lon="6.36814">
        <ele>467.5</ele>
        <time>2026-02-02T10:36:33Z</time>
      </trkpt>
      <trkpt lat="43.56366" lon="6.36826">
        <ele>467.2</ele>
        <time>2026-02-02T10:37:44Z</time>
      </trkpt>
      <trkpt lat="43.56357" lon="6.36824">
        <ele>466.8</ele>
        <time>2026-02-02T10:39:08Z</time>
      </trkpt>
      <trkpt lat="43.5635" lon="6.36833">
        <ele>466.4</ele>
        <time>2026-02-02T10:39:31Z</time>
      </trkpt>
      <trkpt lat="43.56344" lon="6.36842">
        <ele>466.1</ele>
        <time>2026-02-02T10:39:41Z</time>
      </trkpt>
      <trkpt lat="43.56336" lon="6.36848">
        <ele>465.9</ele>
        <time>2026-02-02T10:39:50Z</time>
      </trkpt>
      <trkpt lat="43.56327" lon="6.36854">
        <ele>465.8</ele>
        <time>2026-02-02T10:40:03Z</time>
      </trkpt>
      <trkpt lat="43.56319" lon="6.36862">
        <ele>465.6</ele>
        <time>2026-02-02T10:40:12Z</time>
      </trkpt>
      <trkpt lat="43.56311" lon="6.3687">
        <ele>465.6</ele>
        <time>2026-02-02T10:40:22Z</time>
      </trkpt>
      <trkpt lat="43.56304" lon="6.36878">
        <ele>465.7</ele>
        <time>2026-02-02T10:40:38Z</time>
      </trkpt>
      <trkpt lat="43.56296" lon="6.36886">
        <ele>465.1</ele>
        <time>2026-02-02T10:40:47Z</time>
      </trkpt>
      <trkpt lat="43.56289" lon="6.36895">
        <ele>465.4</ele>
        <time>2026-02-02T10:40:58Z</time>
      </trkpt>
      <trkpt lat="43.56281" lon="6.36901">
        <ele>465.3</ele>
        <time>2026-02-02T10:41:06Z</time>
      </trkpt>
      <trkpt lat="43.56273" lon="6.36909">
        <ele>465.3</ele>
        <time>2026-02-02T10:41:18Z</time>
      </trkpt>
      <trkpt lat="43.56265" lon="6.36915">
        <ele>465.1</ele>
        <time>2026-02-02T10:41:28Z</time>
      </trkpt>
      <trkpt lat="43.56258" lon="6.36923">
        <ele>465.4</ele>
        <time>2026-02-02T10:41:38Z</time>
      </trkpt>
      <trkpt lat="43.5625" lon="6.36931">
        <ele>464.9</ele>
        <time>2026-02-02T10:41:47Z</time>
      </trkpt>
      <trkpt lat="43.56243" lon="6.36939">
        <ele>464.3</ele>
        <time>2026-02-02T10:41:55Z</time>
      </trkpt>
      <trkpt lat="43.56233" lon="6.36941">
        <ele>463.7</ele>
        <time>2026-02-02T10:42:02Z</time>
      </trkpt>
      <trkpt lat="43.56224" lon="6.36946">
        <ele>463.3</ele>
        <time>2026-02-02T10:42:10Z</time>
      </trkpt>
      <trkpt lat="43.56215" lon="6.3695">
        <ele>463.5</ele>
        <time>2026-02-02T10:42:19Z</time>
      </trkpt>
      <trkpt lat="43.56206" lon="6.36954">
        <ele>463.3</ele>
        <time>2026-02-02T10:42:29Z</time>
      </trkpt>
      <trkpt lat="43.56197" lon="6.36957">
        <ele>463</ele>
        <time>2026-02-02T10:42:39Z</time>
      </trkpt>
      <trkpt lat="43.56188" lon="6.3696">
        <ele>462.9</ele>
        <time>2026-02-02T10:42:47Z</time>
      </trkpt>
      <trkpt lat="43.56178" lon="6.36962">
        <ele>462.8</ele>
        <time>2026-02-02T10:42:57Z</time>
      </trkpt>
      <trkpt lat="43.56169" lon="6.36964">
        <ele>462.7</ele>
        <time>2026-02-02T10:43:06Z</time>
      </trkpt>
      <trkpt lat="43.56159" lon="6.36968">
        <ele>462.9</ele>
        <time>2026-02-02T10:43:15Z</time>
      </trkpt>
      <trkpt lat="43.5615" lon="6.3697">
        <ele>463.1</ele>
        <time>2026-02-02T10:43:24Z</time>
      </trkpt>
      <trkpt lat="43.5614" lon="6.36971">
        <ele>463.2</ele>
        <time>2026-02-02T10:43:40Z</time>
      </trkpt>
      <trkpt lat="43.56131" lon="6.36975">
        <ele>463.1</ele>
        <time>2026-02-02T10:43:49Z</time>
      </trkpt>
      <trkpt lat="43.5612" lon="6.36978">
        <ele>463</ele>
        <time>2026-02-02T10:43:59Z</time>
      </trkpt>
      <trkpt lat="43.56111" lon="6.36979">
        <ele>462.9</ele>
        <time>2026-02-02T10:44:08Z</time>
      </trkpt>
      <trkpt lat="43.56102" lon="6.36982">
        <ele>462.7</ele>
        <time>2026-02-02T10:44:16Z</time>
      </trkpt>
      <trkpt lat="43.56092" lon="6.36984">
        <ele>462.1</ele>
        <time>2026-02-02T10:44:26Z</time>
      </trkpt>
      <trkpt lat="43.56083" lon="6.36986">
        <ele>461.6</ele>
        <time>2026-02-02T10:44:36Z</time>
      </trkpt>
      <trkpt lat="43.56073" lon="6.36985">
        <ele>461.1</ele>
        <time>2026-02-02T10:44:46Z</time>
      </trkpt>
      <trkpt lat="43.56064" lon="6.36984">
        <ele>460.7</ele>
        <time>2026-02-02T10:44:55Z</time>
      </trkpt>
      <trkpt lat="43.56055" lon="6.36984">
        <ele>459.3</ele>
        <time>2026-02-02T10:45:19Z</time>
      </trkpt>
      <trkpt lat="43.56046" lon="6.36981">
        <ele>459.2</ele>
        <time>2026-02-02T10:45:28Z</time>
      </trkpt>
      <trkpt lat="43.56036" lon="6.36981">
        <ele>458.9</ele>
        <time>2026-02-02T10:45:38Z</time>
      </trkpt>
      <trkpt lat="43.56027" lon="6.36974">
        <ele>458</ele>
        <time>2026-02-02T10:45:51Z</time>
      </trkpt>
      <trkpt lat="43.56018" lon="6.36972">
        <ele>457.7</ele>
        <time>2026-02-02T10:45:59Z</time>
      </trkpt>
      <trkpt lat="43.56009" lon="6.3697">
        <ele>457.5</ele>
        <time>2026-02-02T10:46:08Z</time>
      </trkpt>
      <trkpt lat="43.56" lon="6.36966">
        <ele>457.5</ele>
        <time>2026-02-02T10:46:17Z</time>
      </trkpt>
      <trkpt lat="43.5599" lon="6.36966">
        <ele>457.4</ele>
        <time>2026-02-02T10:46:28Z</time>
      </trkpt>
      <trkpt lat="43.55981" lon="6.36962">
        <ele>457.2</ele>
        <time>2026-02-02T10:46:41Z</time>
      </trkpt>
      <trkpt lat="43.55972" lon="6.3696">
        <ele>457</ele>
        <time>2026-02-02T10:46:50Z</time>
      </trkpt>
      <trkpt lat="43.55963" lon="6.36958">
        <ele>456.7</ele>
        <time>2026-02-02T10:46:59Z</time>
      </trkpt>
      <trkpt lat="43.55954" lon="6.36954">
        <ele>456.2</ele>
        <time>2026-02-02T10:47:08Z</time>
      </trkpt>
      <trkpt lat="43.55945" lon="6.36953">
        <ele>455.9</ele>
        <time>2026-02-02T10:47:17Z</time>
      </trkpt>
      <trkpt lat="43.55936" lon="6.36954">
        <ele>454.8</ele>
        <time>2026-02-02T10:47:27Z</time>
      </trkpt>
      <trkpt lat="43.55926" lon="6.36957">
        <ele>454.3</ele>
        <time>2026-02-02T10:47:36Z</time>
      </trkpt>
      <trkpt lat="43.55917" lon="6.36958">
        <ele>453.6</ele>
        <time>2026-02-02T10:47:46Z</time>
      </trkpt>
      <trkpt lat="43.55908" lon="6.3696">
        <ele>453</ele>
        <time>2026-02-02T10:47:55Z</time>
      </trkpt>
      <trkpt lat="43.55899" lon="6.36963">
        <ele>452.6</ele>
        <time>2026-02-02T10:48:04Z</time>
      </trkpt>
      <trkpt lat="43.5589" lon="6.36968">
        <ele>452</ele>
        <time>2026-02-02T10:48:13Z</time>
      </trkpt>
      <trkpt lat="43.5588" lon="6.36974">
        <ele>451.8</ele>
        <time>2026-02-02T10:48:22Z</time>
      </trkpt>
      <trkpt lat="43.55873" lon="6.36981">
        <ele>451.8</ele>
        <time>2026-02-02T10:48:30Z</time>
      </trkpt>
      <trkpt lat="43.55866" lon="6.3699">
        <ele>451.5</ele>
        <time>2026-02-02T10:48:41Z</time>
      </trkpt>
      <trkpt lat="43.55859" lon="6.37">
        <ele>449.8</ele>
        <time>2026-02-02T10:49:02Z</time>
      </trkpt>
      <trkpt lat="43.55851" lon="6.37008">
        <ele>449.9</ele>
        <time>2026-02-02T10:49:13Z</time>
      </trkpt>
      <trkpt lat="43.55843" lon="6.37015">
        <ele>449.3</ele>
        <time>2026-02-02T10:49:25Z</time>
      </trkpt>
      <trkpt lat="43.55837" lon="6.37025">
        <ele>449.1</ele>
        <time>2026-02-02T10:49:48Z</time>
      </trkpt>
      <trkpt lat="43.55829" lon="6.37031">
        <ele>448.5</ele>
        <time>2026-02-02T10:50:01Z</time>
      </trkpt>
      <trkpt lat="43.55821" lon="6.37038">
        <ele>448.1</ele>
        <time>2026-02-02T10:50:12Z</time>
      </trkpt>
      <trkpt lat="43.55814" lon="6.37046">
        <ele>447.1</ele>
        <time>2026-02-02T10:50:24Z</time>
      </trkpt>
      <trkpt lat="43.55806" lon="6.37053">
        <ele>446.3</ele>
        <time>2026-02-02T10:50:36Z</time>
      </trkpt>
      <trkpt lat="43.55796" lon="6.37055">
        <ele>444.7</ele>
        <time>2026-02-02T10:50:48Z</time>
      </trkpt>
      <trkpt lat="43.55787" lon="6.37058">
        <ele>443.3</ele>
        <time>2026-02-02T10:50:59Z</time>
      </trkpt>
      <trkpt lat="43.55778" lon="6.37061">
        <ele>442.5</ele>
        <time>2026-02-02T10:51:08Z</time>
      </trkpt>
      <trkpt lat="43.55769" lon="6.37065">
        <ele>442</ele>
        <time>2026-02-02T10:51:17Z</time>
      </trkpt>
      <trkpt lat="43.5576" lon="6.37068">
        <ele>441.6</ele>
        <time>2026-02-02T10:51:27Z</time>
      </trkpt>
      <trkpt lat="43.5575" lon="6.37067">
        <ele>441.1</ele>
        <time>2026-02-02T10:51:36Z</time>
      </trkpt>
      <trkpt lat="43.55741" lon="6.37067">
        <ele>440.8</ele>
        <time>2026-02-02T10:51:49Z</time>
      </trkpt>
      <trkpt lat="43.55732" lon="6.3707">
        <ele>440.8</ele>
        <time>2026-02-02T10:52:00Z</time>
      </trkpt>
      <trkpt lat="43.55723" lon="6.37073">
        <ele>440.6</ele>
        <time>2026-02-02T10:52:10Z</time>
      </trkpt>
      <trkpt lat="43.55714" lon="6.37076">
        <ele>440</ele>
        <time>2026-02-02T10:52:20Z</time>
      </trkpt>
      <trkpt lat="43.55704" lon="6.37079">
        <ele>438.8</ele>
        <time>2026-02-02T10:52:41Z</time>
      </trkpt>
      <trkpt lat="43.55698" lon="6.37089">
        <ele>437.9</ele>
        <time>2026-02-02T10:52:58Z</time>
      </trkpt>
      <trkpt lat="43.55688" lon="6.37092">
        <ele>436.9</ele>
        <time>2026-02-02T10:53:11Z</time>
      </trkpt>
      <trkpt lat="43.5568" lon="6.37097">
        <ele>435.8</ele>
        <time>2026-02-02T10:53:24Z</time>
      </trkpt>
      <trkpt lat="43.55671" lon="6.37101">
        <ele>434.9</ele>
        <time>2026-02-02T10:53:36Z</time>
      </trkpt>
      <trkpt lat="43.55662" lon="6.37103">
        <ele>434.4</ele>
        <time>2026-02-02T10:53:43Z</time>
      </trkpt>
      <trkpt lat="43.55653" lon="6.37106">
        <ele>434</ele>
        <time>2026-02-02T10:53:50Z</time>
      </trkpt>
      <trkpt lat="43.55644" lon="6.37109">
        <ele>433.5</ele>
        <time>2026-02-02T10:53:59Z</time>
      </trkpt>
      <trkpt lat="43.55635" lon="6.37115">
        <ele>432.7</ele>
        <time>2026-02-02T10:54:08Z</time>
      </trkpt>
      <trkpt lat="43.55626" lon="6.37117">
        <ele>431.9</ele>
        <time>2026-02-02T10:54:17Z</time>
      </trkpt>
      <trkpt lat="43.55617" lon="6.3712">
        <ele>431.4</ele>
        <time>2026-02-02T10:54:26Z</time>
      </trkpt>
      <trkpt lat="43.55608" lon="6.37124">
        <ele>430.8</ele>
        <time>2026-02-02T10:54:47Z</time>
      </trkpt>
      <trkpt lat="43.55599" lon="6.37127">
        <ele>429.9</ele>
        <time>2026-02-02T10:56:48Z</time>
      </trkpt>
      <trkpt lat="43.55591" lon="6.37133">
        <ele>429</ele>
        <time>2026-02-02T10:57:09Z</time>
      </trkpt>
      <trkpt lat="43.55582" lon="6.37137">
        <ele>428.6</ele>
        <time>2026-02-02T10:57:20Z</time>
      </trkpt>
      <trkpt lat="43.55573" lon="6.37142">
        <ele>428.7</ele>
        <time>2026-02-02T10:57:31Z</time>
      </trkpt>
      <trkpt lat="43.55565" lon="6.37147">
        <ele>428.4</ele>
        <time>2026-02-02T10:57:40Z</time>
      </trkpt>
      <trkpt lat="43.55556" lon="6.37151">
        <ele>428.5</ele>
        <time>2026-02-02T10:57:48Z</time>
      </trkpt>
      <trkpt lat="43.55547" lon="6.37156">
        <ele>428.1</ele>
        <time>2026-02-02T10:57:56Z</time>
      </trkpt>
      <trkpt lat="43.55538" lon="6.37162">
        <ele>427.4</ele>
        <time>2026-02-02T10:58:05Z</time>
      </trkpt>
      <trkpt lat="43.55531" lon="6.3717">
        <ele>427.4</ele>
        <time>2026-02-02T10:58:16Z</time>
      </trkpt>
      <trkpt lat="43.55523" lon="6.37177">
        <ele>427.2</ele>
        <time>2026-02-02T10:58:25Z</time>
      </trkpt>
      <trkpt lat="43.55513" lon="6.37182">
        <ele>426.3</ele>
        <time>2026-02-02T10:58:36Z</time>
      </trkpt>
      <trkpt lat="43.55505" lon="6.37188">
        <ele>426.3</ele>
        <time>2026-02-02T10:58:45Z</time>
      </trkpt>
      <trkpt lat="43.55496" lon="6.37195">
        <ele>425.4</ele>
        <time>2026-02-02T10:58:53Z</time>
      </trkpt>
      <trkpt lat="43.55488" lon="6.37202">
        <ele>425.1</ele>
        <time>2026-02-02T10:59:00Z</time>
      </trkpt>
      <trkpt lat="43.55479" lon="6.37207">
        <ele>425.2</ele>
        <time>2026-02-02T10:59:08Z</time>
      </trkpt>
      <trkpt lat="43.5547" lon="6.37212">
        <ele>423.7</ele>
        <time>2026-02-02T10:59:18Z</time>
      </trkpt>
      <trkpt lat="43.55461" lon="6.37217">
        <ele>422.2</ele>
        <time>2026-02-02T10:59:27Z</time>
      </trkpt>
      <trkpt lat="43.55451" lon="6.37221">
        <ele>421.2</ele>
        <time>2026-02-02T10:59:34Z</time>
      </trkpt>
      <trkpt lat="43.55442" lon="6.37225">
        <ele>419.9</ele>
        <time>2026-02-02T10:59:44Z</time>
      </trkpt>
      <trkpt lat="43.55433" lon="6.37228">
        <ele>419</ele>
        <time>2026-02-02T10:59:52Z</time>
      </trkpt>
      <trkpt lat="43.55423" lon="6.37231">
        <ele>417.6</ele>
        <time>2026-02-02T11:00:01Z</time>
      </trkpt>
      <trkpt lat="43.55414" lon="6.37233">
        <ele>416.6</ele>
        <time>2026-02-02T11:00:09Z</time>
      </trkpt>
      <trkpt lat="43.55405" lon="6.37234">
        <ele>415.4</ele>
        <time>2026-02-02T11:00:18Z</time>
      </trkpt>
      <trkpt lat="43.55395" lon="6.37236">
        <ele>414.5</ele>
        <time>2026-02-02T11:00:28Z</time>
      </trkpt>
      <trkpt lat="43.55386" lon="6.37239">
        <ele>413.4</ele>
        <time>2026-02-02T11:00:36Z</time>
      </trkpt>
      <trkpt lat="43.55378" lon="6.37243">
        <ele>412.7</ele>
        <time>2026-02-02T11:00:44Z</time>
      </trkpt>
      <trkpt lat="43.55369" lon="6.37247">
        <ele>412.1</ele>
        <time>2026-02-02T11:00:52Z</time>
      </trkpt>
      <trkpt lat="43.5536" lon="6.3725">
        <ele>411.3</ele>
        <time>2026-02-02T11:01:01Z</time>
      </trkpt>
      <trkpt lat="43.5535" lon="6.37252">
        <ele>411</ele>
        <time>2026-02-02T11:01:10Z</time>
      </trkpt>
      <trkpt lat="43.55341" lon="6.37257">
        <ele>410.9</ele>
        <time>2026-02-02T11:01:19Z</time>
      </trkpt>
      <trkpt lat="43.55331" lon="6.37259">
        <ele>410.3</ele>
        <time>2026-02-02T11:02:00Z</time>
      </trkpt>
      <trkpt lat="43.55324" lon="6.37251">
        <ele>410.1</ele>
        <time>2026-02-02T11:02:11Z</time>
      </trkpt>
      <trkpt lat="43.55326" lon="6.37238">
        <ele>409.8</ele>
        <time>2026-02-02T11:02:24Z</time>
      </trkpt>
      <trkpt lat="43.55317" lon="6.3724">
        <ele>408.5</ele>
        <time>2026-02-02T11:04:08Z</time>
      </trkpt>
      <trkpt lat="43.55309" lon="6.37233">
        <ele>407.5</ele>
        <time>2026-02-02T11:04:20Z</time>
      </trkpt>
      <trkpt lat="43.55301" lon="6.37225">
        <ele>406.5</ele>
        <time>2026-02-02T11:04:31Z</time>
      </trkpt>
      <trkpt lat="43.55294" lon="6.37219">
        <ele>405.8</ele>
        <time>2026-02-02T11:04:40Z</time>
      </trkpt>
      <trkpt lat="43.55285" lon="6.37213">
        <ele>404.9</ele>
        <time>2026-02-02T11:04:51Z</time>
      </trkpt>
      <trkpt lat="43.55277" lon="6.37205">
        <ele>404.3</ele>
        <time>2026-02-02T11:05:02Z</time>
      </trkpt>
      <trkpt lat="43.55271" lon="6.37195">
        <ele>403.9</ele>
        <time>2026-02-02T11:05:12Z</time>
      </trkpt>
      <trkpt lat="43.55268" lon="6.37183">
        <ele>403.4</ele>
        <time>2026-02-02T11:05:56Z</time>
      </trkpt>
      <trkpt lat="43.55261" lon="6.37174">
        <ele>403.5</ele>
        <time>2026-02-02T11:06:41Z</time>
      </trkpt>
      <trkpt lat="43.55253" lon="6.37167">
        <ele>403.2</ele>
        <time>2026-02-02T11:06:51Z</time>
      </trkpt>
      <trkpt lat="43.55244" lon="6.37163">
        <ele>402.7</ele>
        <time>2026-02-02T11:09:42Z</time>
      </trkpt>
      <trkpt lat="43.55254" lon="6.37164">
        <ele>412.8</ele>
        <time>2026-02-02T11:42:44Z</time>
      </trkpt>
      <trkpt lat="43.55245" lon="6.37159">
        <ele>412.8</ele>
        <time>2026-02-02T11:44:02Z</time>
      </trkpt>
      <trkpt lat="43.55236" lon="6.37155">
        <ele>412.7</ele>
        <time>2026-02-02T11:44:51Z</time>
      </trkpt>
      <trkpt lat="43.55231" lon="6.37145">
        <ele>412.9</ele>
        <time>2026-02-02T11:45:47Z</time>
      </trkpt>
      <trkpt lat="43.55223" lon="6.37138">
        <ele>412.8</ele>
        <time>2026-02-02T11:46:04Z</time>
      </trkpt>
      <trkpt lat="43.55215" lon="6.3713">
        <ele>413</ele>
        <time>2026-02-02T11:46:12Z</time>
      </trkpt>
      <trkpt lat="43.55207" lon="6.37124">
        <ele>413.1</ele>
        <time>2026-02-02T11:46:20Z</time>
      </trkpt>
      <trkpt lat="43.55198" lon="6.37118">
        <ele>414</ele>
        <time>2026-02-02T11:46:33Z</time>
      </trkpt>
      <trkpt lat="43.55191" lon="6.3711">
        <ele>413.6</ele>
        <time>2026-02-02T11:46:45Z</time>
      </trkpt>
      <trkpt lat="43.55183" lon="6.37102">
        <ele>413.5</ele>
        <time>2026-02-02T11:46:55Z</time>
      </trkpt>
      <trkpt lat="43.55175" lon="6.37095">
        <ele>413.3</ele>
        <time>2026-02-02T11:47:05Z</time>
      </trkpt>
      <trkpt lat="43.55167" lon="6.37091">
        <ele>412.3</ele>
        <time>2026-02-02T11:47:16Z</time>
      </trkpt>
      <trkpt lat="43.55158" lon="6.37085">
        <ele>411.4</ele>
        <time>2026-02-02T11:47:26Z</time>
      </trkpt>
      <trkpt lat="43.55148" lon="6.37083">
        <ele>410.2</ele>
        <time>2026-02-02T11:47:35Z</time>
      </trkpt>
      <trkpt lat="43.55139" lon="6.37078">
        <ele>407.9</ele>
        <time>2026-02-02T11:47:48Z</time>
      </trkpt>
      <trkpt lat="43.5513" lon="6.37073">
        <ele>405.7</ele>
        <time>2026-02-02T11:48:00Z</time>
      </trkpt>
      <trkpt lat="43.55121" lon="6.3707">
        <ele>403.5</ele>
        <time>2026-02-02T11:48:09Z</time>
      </trkpt>
      <trkpt lat="43.55113" lon="6.37062">
        <ele>401.5</ele>
        <time>2026-02-02T11:48:19Z</time>
      </trkpt>
      <trkpt lat="43.55108" lon="6.37052">
        <ele>399.9</ele>
        <time>2026-02-02T11:48:30Z</time>
      </trkpt>
      <trkpt lat="43.55106" lon="6.37039">
        <ele>398.3</ele>
        <time>2026-02-02T11:48:40Z</time>
      </trkpt>
      <trkpt lat="43.55103" lon="6.37026">
        <ele>396.7</ele>
        <time>2026-02-02T11:48:51Z</time>
      </trkpt>
      <trkpt lat="43.55102" lon="6.37013">
        <ele>395.1</ele>
        <time>2026-02-02T11:49:01Z</time>
      </trkpt>
      <trkpt lat="43.55099" lon="6.37001">
        <ele>393</ele>
        <time>2026-02-02T11:49:12Z</time>
      </trkpt>
      <trkpt lat="43.55095" lon="6.3699">
        <ele>390.7</ele>
        <time>2026-02-02T11:49:24Z</time>
      </trkpt>
      <trkpt lat="43.55091" lon="6.36979">
        <ele>388.5</ele>
        <time>2026-02-02T11:49:34Z</time>
      </trkpt>
      <trkpt lat="43.55086" lon="6.36968">
        <ele>387</ele>
        <time>2026-02-02T11:49:43Z</time>
      </trkpt>
      <trkpt lat="43.55083" lon="6.36956">
        <ele>385.5</ele>
        <time>2026-02-02T11:49:53Z</time>
      </trkpt>
      <trkpt lat="43.55081" lon="6.36943">
        <ele>383.5</ele>
        <time>2026-02-02T11:50:11Z</time>
      </trkpt>
      <trkpt lat="43.55077" lon="6.36932">
        <ele>381.7</ele>
        <time>2026-02-02T11:50:29Z</time>
      </trkpt>
      <trkpt lat="43.55076" lon="6.36919">
        <ele>378.5</ele>
        <time>2026-02-02T11:50:50Z</time>
      </trkpt>
      <trkpt lat="43.55076" lon="6.36905">
        <ele>378</ele>
        <time>2026-02-02T11:50:56Z</time>
      </trkpt>
      <trkpt lat="43.55073" lon="6.36892">
        <ele>377.6</ele>
        <time>2026-02-02T11:51:02Z</time>
      </trkpt>
      <trkpt lat="43.5507" lon="6.36879">
        <ele>377.4</ele>
        <time>2026-02-02T11:51:11Z</time>
      </trkpt>
      <trkpt lat="43.55067" lon="6.36866">
        <ele>376.5</ele>
        <time>2026-02-02T11:51:20Z</time>
      </trkpt>
      <trkpt lat="43.55063" lon="6.36854">
        <ele>375.8</ele>
        <time>2026-02-02T11:51:28Z</time>
      </trkpt>
      <trkpt lat="43.55058" lon="6.36842">
        <ele>374.9</ele>
        <time>2026-02-02T11:51:36Z</time>
      </trkpt>
      <trkpt lat="43.55053" lon="6.36832">
        <ele>374.1</ele>
        <time>2026-02-02T11:51:47Z</time>
      </trkpt>
      <trkpt lat="43.55049" lon="6.36819">
        <ele>374</ele>
        <time>2026-02-02T11:52:00Z</time>
      </trkpt>
      <trkpt lat="43.55043" lon="6.3681">
        <ele>373.6</ele>
        <time>2026-02-02T11:52:26Z</time>
      </trkpt>
      <trkpt lat="43.55035" lon="6.36801">
        <ele>373.6</ele>
        <time>2026-02-02T11:52:37Z</time>
      </trkpt>
      <trkpt lat="43.55027" lon="6.36795">
        <ele>373.5</ele>
        <time>2026-02-02T11:52:45Z</time>
      </trkpt>
      <trkpt lat="43.55017" lon="6.36793">
        <ele>373.2</ele>
        <time>2026-02-02T11:52:54Z</time>
      </trkpt>
      <trkpt lat="43.55008" lon="6.36789">
        <ele>372.8</ele>
        <time>2026-02-02T11:53:02Z</time>
      </trkpt>
      <trkpt lat="43.5501" lon="6.36776">
        <ele>371.9</ele>
        <time>2026-02-02T11:53:26Z</time>
      </trkpt>
      <trkpt lat="43.55014" lon="6.36764">
        <ele>372</ele>
        <time>2026-02-02T11:53:41Z</time>
      </trkpt>
      <trkpt lat="43.55007" lon="6.36772">
        <ele>371.3</ele>
        <time>2026-02-02T11:54:31Z</time>
      </trkpt>
      <trkpt lat="43.54997" lon="6.36776">
        <ele>371.5</ele>
        <time>2026-02-02T11:54:49Z</time>
      </trkpt>
      <trkpt lat="43.54996" lon="6.36789">
        <ele>371.9</ele>
        <time>2026-02-02T11:55:27Z</time>
      </trkpt>
      <trkpt lat="43.54997" lon="6.36801">
        <ele>371.4</ele>
        <time>2026-02-02T11:55:55Z</time>
      </trkpt>
      <trkpt lat="43.54994" lon="6.36813">
        <ele>371.5</ele>
        <time>2026-02-02T11:56:07Z</time>
      </trkpt>
      <trkpt lat="43.54993" lon="6.36827">
        <ele>371.3</ele>
        <time>2026-02-02T11:56:25Z</time>
      </trkpt>
      <trkpt lat="43.5499" lon="6.3684">
        <ele>371.6</ele>
        <time>2026-02-02T11:56:50Z</time>
      </trkpt>
      <trkpt lat="43.54986" lon="6.36851">
        <ele>371.3</ele>
        <time>2026-02-02T11:57:13Z</time>
      </trkpt>
      <trkpt lat="43.54979" lon="6.36861">
        <ele>370.7</ele>
        <time>2026-02-02T11:59:49Z</time>
      </trkpt>
      <trkpt lat="43.54975" lon="6.36872">
        <ele>370.7</ele>
        <time>2026-02-02T11:59:58Z</time>
      </trkpt>
      <trkpt lat="43.5497" lon="6.36883">
        <ele>370.4</ele>
        <time>2026-02-02T12:00:23Z</time>
      </trkpt>
      <trkpt lat="43.54965" lon="6.36894">
        <ele>370.7</ele>
        <time>2026-02-02T12:01:31Z</time>
      </trkpt>
      <trkpt lat="43.5496" lon="6.36906">
        <ele>370.7</ele>
        <time>2026-02-02T12:01:41Z</time>
      </trkpt>
      <trkpt lat="43.54956" lon="6.36917">
        <ele>370.6</ele>
        <time>2026-02-02T12:02:17Z</time>
      </trkpt>
      <trkpt lat="43.54951" lon="6.36929">
        <ele>370.5</ele>
        <time>2026-02-02T12:02:26Z</time>
      </trkpt>
      <trkpt lat="43.54947" lon="6.36941">
        <ele>370.8</ele>
        <time>2026-02-02T12:02:37Z</time>
      </trkpt>
      <trkpt lat="43.54943" lon="6.36952">
        <ele>371</ele>
        <time>2026-02-02T12:02:58Z</time>
      </trkpt>
      <trkpt lat="43.54941" lon="6.36964">
        <ele>371.1</ele>
        <time>2026-02-02T12:03:07Z</time>
      </trkpt>
      <trkpt lat="43.54936" lon="6.36975">
        <ele>371.2</ele>
        <time>2026-02-02T12:03:17Z</time>
      </trkpt>
      <trkpt lat="43.54932" lon="6.36987">
        <ele>371.5</ele>
        <time>2026-02-02T12:03:26Z</time>
      </trkpt>
      <trkpt lat="43.54928" lon="6.36999">
        <ele>371.6</ele>
        <time>2026-02-02T12:03:35Z</time>
      </trkpt>
      <trkpt lat="43.54924" lon="6.3701">
        <ele>372</ele>
        <time>2026-02-02T12:03:51Z</time>
      </trkpt>
      <trkpt lat="43.5492" lon="6.37021">
        <ele>372</ele>
        <time>2026-02-02T12:04:01Z</time>
      </trkpt>
      <trkpt lat="43.54915" lon="6.37034">
        <ele>372.1</ele>
        <time>2026-02-02T12:04:17Z</time>
      </trkpt>
      <trkpt lat="43.54912" lon="6.37045">
        <ele>372.1</ele>
        <time>2026-02-02T12:04:27Z</time>
      </trkpt>
      <trkpt lat="43.54907" lon="6.37056">
        <ele>372.6</ele>
        <time>2026-02-02T12:04:42Z</time>
      </trkpt>
      <trkpt lat="43.54905" lon="6.37069">
        <ele>372.9</ele>
        <time>2026-02-02T12:04:52Z</time>
      </trkpt>
      <trkpt lat="43.54903" lon="6.37081">
        <ele>373</ele>
        <time>2026-02-02T12:05:00Z</time>
      </trkpt>
      <trkpt lat="43.54901" lon="6.37093">
        <ele>373.2</ele>
        <time>2026-02-02T12:05:08Z</time>
      </trkpt>
      <trkpt lat="43.54898" lon="6.37106">
        <ele>373.3</ele>
        <time>2026-02-02T12:05:17Z</time>
      </trkpt>
      <trkpt lat="43.54896" lon="6.3712">
        <ele>373.6</ele>
        <time>2026-02-02T12:05:27Z</time>
      </trkpt>
      <trkpt lat="43.54889" lon="6.37129">
        <ele>373.3</ele>
        <time>2026-02-02T12:05:37Z</time>
      </trkpt>
      <trkpt lat="43.54884" lon="6.37139">
        <ele>373.1</ele>
        <time>2026-02-02T12:05:45Z</time>
      </trkpt>
      <trkpt lat="43.54878" lon="6.37151">
        <ele>373.4</ele>
        <time>2026-02-02T12:05:54Z</time>
      </trkpt>
      <trkpt lat="43.54871" lon="6.37159">
        <ele>373.7</ele>
        <time>2026-02-02T12:06:02Z</time>
      </trkpt>
      <trkpt lat="43.54865" lon="6.37169">
        <ele>374.1</ele>
        <time>2026-02-02T12:06:12Z</time>
      </trkpt>
      <trkpt lat="43.54858" lon="6.37175">
        <ele>374</ele>
        <time>2026-02-02T12:06:28Z</time>
      </trkpt>
      <trkpt lat="43.54851" lon="6.37184">
        <ele>373.7</ele>
        <time>2026-02-02T12:06:37Z</time>
      </trkpt>
      <trkpt lat="43.54845" lon="6.37194">
        <ele>374.3</ele>
        <time>2026-02-02T12:06:48Z</time>
      </trkpt>
      <trkpt lat="43.54837" lon="6.37202">
        <ele>374.3</ele>
        <time>2026-02-02T12:06:58Z</time>
      </trkpt>
      <trkpt lat="43.54831" lon="6.37211">
        <ele>374.2</ele>
        <time>2026-02-02T12:07:06Z</time>
      </trkpt>
      <trkpt lat="43.54825" lon="6.3722">
        <ele>374.3</ele>
        <time>2026-02-02T12:07:15Z</time>
      </trkpt>
      <trkpt lat="43.54817" lon="6.3723">
        <ele>374.2</ele>
        <time>2026-02-02T12:07:24Z</time>
      </trkpt>
      <trkpt lat="43.54811" lon="6.37239">
        <ele>374.2</ele>
        <time>2026-02-02T12:07:33Z</time>
      </trkpt>
      <trkpt lat="43.54804" lon="6.37248">
        <ele>374.3</ele>
        <time>2026-02-02T12:07:42Z</time>
      </trkpt>
      <trkpt lat="43.54799" lon="6.37257">
        <ele>374.6</ele>
        <time>2026-02-02T12:07:51Z</time>
      </trkpt>
      <trkpt lat="43.54792" lon="6.37267">
        <ele>374.2</ele>
        <time>2026-02-02T12:08:02Z</time>
      </trkpt>
      <trkpt lat="43.54786" lon="6.37276">
        <ele>374.2</ele>
        <time>2026-02-02T12:08:23Z</time>
      </trkpt>
      <trkpt lat="43.54783" lon="6.37289">
        <ele>373.6</ele>
        <time>2026-02-02T12:08:39Z</time>
      </trkpt>
      <trkpt lat="43.54777" lon="6.37298">
        <ele>372.6</ele>
        <time>2026-02-02T12:08:56Z</time>
      </trkpt>
      <trkpt lat="43.54768" lon="6.37298">
        <ele>371.6</ele>
        <time>2026-02-02T12:09:41Z</time>
      </trkpt>
      <trkpt lat="43.5476" lon="6.3729">
        <ele>370.7</ele>
        <time>2026-02-02T12:10:06Z</time>
      </trkpt>
      <trkpt lat="43.54751" lon="6.37285">
        <ele>369.8</ele>
        <time>2026-02-02T12:10:24Z</time>
      </trkpt>
      <trkpt lat="43.54743" lon="6.3728">
        <ele>369.1</ele>
        <time>2026-02-02T12:10:34Z</time>
      </trkpt>
      <trkpt lat="43.54735" lon="6.37273">
        <ele>367.8</ele>
        <time>2026-02-02T12:10:58Z</time>
      </trkpt>
      <trkpt lat="43.54727" lon="6.37268">
        <ele>366.9</ele>
        <time>2026-02-02T12:11:48Z</time>
      </trkpt>
      <trkpt lat="43.54718" lon="6.37262">
        <ele>366.8</ele>
        <time>2026-02-02T12:12:12Z</time>
      </trkpt>
      <trkpt lat="43.5471" lon="6.37255">
        <ele>365.9</ele>
        <time>2026-02-02T12:12:24Z</time>
      </trkpt>
      <trkpt lat="43.54701" lon="6.3725">
        <ele>365.3</ele>
        <time>2026-02-02T12:12:33Z</time>
      </trkpt>
      <trkpt lat="43.54691" lon="6.37245">
        <ele>364.4</ele>
        <time>2026-02-02T12:12:42Z</time>
      </trkpt>
      <trkpt lat="43.54683" lon="6.3724">
        <ele>364</ele>
        <time>2026-02-02T12:12:51Z</time>
      </trkpt>
      <trkpt lat="43.54674" lon="6.37235">
        <ele>363.6</ele>
        <time>2026-02-02T12:13:00Z</time>
      </trkpt>
      <trkpt lat="43.54666" lon="6.37229">
        <ele>363.4</ele>
        <time>2026-02-02T12:13:08Z</time>
      </trkpt>
      <trkpt lat="43.54656" lon="6.37225">
        <ele>362.6</ele>
        <time>2026-02-02T12:13:23Z</time>
      </trkpt>
      <trkpt lat="43.54649" lon="6.37233">
        <ele>362.1</ele>
        <time>2026-02-02T12:13:46Z</time>
      </trkpt>
      <trkpt lat="43.54645" lon="6.37245">
        <ele>361.6</ele>
        <time>2026-02-02T12:13:56Z</time>
      </trkpt>
      <trkpt lat="43.5464" lon="6.37256">
        <ele>361.3</ele>
        <time>2026-02-02T12:14:07Z</time>
      </trkpt>
      <trkpt lat="43.54635" lon="6.37267">
        <ele>362</ele>
        <time>2026-02-02T12:14:16Z</time>
      </trkpt>
      <trkpt lat="43.54629" lon="6.37278">
        <ele>362.3</ele>
        <time>2026-02-02T12:14:33Z</time>
      </trkpt>
      <trkpt lat="43.54622" lon="6.37288">
        <ele>362</ele>
        <time>2026-02-02T12:14:51Z</time>
      </trkpt>
      <trkpt lat="43.54615" lon="6.37297">
        <ele>361.7</ele>
        <time>2026-02-02T12:15:09Z</time>
      </trkpt>
      <trkpt lat="43.54609" lon="6.37306">
        <ele>361.8</ele>
        <time>2026-02-02T12:15:17Z</time>
      </trkpt>
      <trkpt lat="43.54603" lon="6.37316">
        <ele>361.9</ele>
        <time>2026-02-02T12:15:26Z</time>
      </trkpt>
      <trkpt lat="43.54598" lon="6.37327">
        <ele>361.6</ele>
        <time>2026-02-02T12:15:35Z</time>
      </trkpt>
      <trkpt lat="43.54592" lon="6.37338">
        <ele>361.1</ele>
        <time>2026-02-02T12:15:45Z</time>
      </trkpt>
      <trkpt lat="43.54585" lon="6.37345">
        <ele>360.8</ele>
        <time>2026-02-02T12:16:44Z</time>
      </trkpt>
      <trkpt lat="43.54577" lon="6.37354">
        <ele>360.4</ele>
        <time>2026-02-02T12:17:01Z</time>
      </trkpt>
      <trkpt lat="43.54572" lon="6.37365">
        <ele>360.1</ele>
        <time>2026-02-02T12:17:14Z</time>
      </trkpt>
      <trkpt lat="43.54567" lon="6.37376">
        <ele>360</ele>
        <time>2026-02-02T12:17:31Z</time>
      </trkpt>
      <trkpt lat="43.54564" lon="6.37388">
        <ele>359.7</ele>
        <time>2026-02-02T12:17:43Z</time>
      </trkpt>
      <trkpt lat="43.54562" lon="6.374">
        <ele>359.4</ele>
        <time>2026-02-02T12:17:51Z</time>
      </trkpt>
      <trkpt lat="43.54558" lon="6.37412">
        <ele>359.1</ele>
        <time>2026-02-02T12:18:02Z</time>
      </trkpt>
      <trkpt lat="43.54552" lon="6.37422">
        <ele>358.8</ele>
        <time>2026-02-02T12:18:13Z</time>
      </trkpt>
      <trkpt lat="43.54546" lon="6.37433">
        <ele>357.8</ele>
        <time>2026-02-02T12:18:23Z</time>
      </trkpt>
      <trkpt lat="43.54541" lon="6.37445">
        <ele>357.2</ele>
        <time>2026-02-02T12:18:36Z</time>
      </trkpt>
      <trkpt lat="43.54539" lon="6.37458">
        <ele>357.2</ele>
        <time>2026-02-02T12:18:47Z</time>
      </trkpt>
      <trkpt lat="43.54535" lon="6.37469">
        <ele>356.7</ele>
        <time>2026-02-02T12:19:07Z</time>
      </trkpt>
      <trkpt lat="43.54526" lon="6.37472">
        <ele>357.1</ele>
        <time>2026-02-02T12:19:36Z</time>
      </trkpt>
      <trkpt lat="43.54517" lon="6.37475">
        <ele>356.6</ele>
        <time>2026-02-02T12:19:50Z</time>
      </trkpt>
      <trkpt lat="43.54508" lon="6.37476">
        <ele>356</ele>
        <time>2026-02-02T12:20:32Z</time>
      </trkpt>
      <trkpt lat="43.54498" lon="6.37477">
        <ele>355.9</ele>
        <time>2026-02-02T12:20:53Z</time>
      </trkpt>
      <trkpt lat="43.54489" lon="6.37474">
        <ele>355.7</ele>
        <time>2026-02-02T12:21:04Z</time>
      </trkpt>
      <trkpt lat="43.54481" lon="6.37467">
        <ele>355</ele>
        <time>2026-02-02T12:21:16Z</time>
      </trkpt>
      <trkpt lat="43.54482" lon="6.37454">
        <ele>354.4</ele>
        <time>2026-02-02T12:21:58Z</time>
      </trkpt>
      <trkpt lat="43.54473" lon="6.3746">
        <ele>354.8</ele>
        <time>2026-02-02T12:23:32Z</time>
      </trkpt>
      <trkpt lat="43.54464" lon="6.3746">
        <ele>355</ele>
        <time>2026-02-02T12:23:45Z</time>
      </trkpt>
      <trkpt lat="43.54454" lon="6.37463">
        <ele>354.5</ele>
        <time>2026-02-02T12:23:58Z</time>
      </trkpt>
      <trkpt lat="43.54446" lon="6.3747">
        <ele>354.6</ele>
        <time>2026-02-02T12:24:09Z</time>
      </trkpt>
      <trkpt lat="43.5444" lon="6.37479">
        <ele>354.1</ele>
        <time>2026-02-02T12:24:20Z</time>
      </trkpt>
      <trkpt lat="43.54431" lon="6.37485">
        <ele>353.9</ele>
        <time>2026-02-02T12:24:29Z</time>
      </trkpt>
      <trkpt lat="43.54423" lon="6.37492">
        <ele>353.9</ele>
        <time>2026-02-02T12:24:39Z</time>
      </trkpt>
      <trkpt lat="43.54415" lon="6.37498">
        <ele>353.9</ele>
        <time>2026-02-02T12:24:49Z</time>
      </trkpt>
      <trkpt lat="43.54407" lon="6.37507">
        <ele>353.8</ele>
        <time>2026-02-02T12:24:59Z</time>
      </trkpt>
      <trkpt lat="43.54404" lon="6.37519">
        <ele>353.4</ele>
        <time>2026-02-02T12:25:09Z</time>
      </trkpt>
      <trkpt lat="43.54401" lon="6.3753">
        <ele>353.5</ele>
        <time>2026-02-02T12:25:20Z</time>
      </trkpt>
      <trkpt lat="43.54399" lon="6.37543">
        <ele>353</ele>
        <time>2026-02-02T12:25:33Z</time>
      </trkpt>
      <trkpt lat="43.54397" lon="6.37556">
        <ele>352.8</ele>
        <time>2026-02-02T12:25:46Z</time>
      </trkpt>
      <trkpt lat="43.54396" lon="6.37568">
        <ele>353</ele>
        <time>2026-02-02T12:25:57Z</time>
      </trkpt>
      <trkpt lat="43.54395" lon="6.37581">
        <ele>352.9</ele>
        <time>2026-02-02T12:26:08Z</time>
      </trkpt>
      <trkpt lat="43.54393" lon="6.37594">
        <ele>353.6</ele>
        <time>2026-02-02T12:26:26Z</time>
      </trkpt>
      <trkpt lat="43.54392" lon="6.37606">
        <ele>353.1</ele>
        <time>2026-02-02T12:26:37Z</time>
      </trkpt>
      <trkpt lat="43.54389" lon="6.37618">
        <ele>353.3</ele>
        <time>2026-02-02T12:26:49Z</time>
      </trkpt>
      <trkpt lat="43.54385" lon="6.3763">
        <ele>353</ele>
        <time>2026-02-02T12:27:01Z</time>
      </trkpt>
      <trkpt lat="43.54383" lon="6.37642">
        <ele>352.9</ele>
        <time>2026-02-02T12:27:12Z</time>
      </trkpt>
      <trkpt lat="43.54379" lon="6.37654">
        <ele>352.8</ele>
        <time>2026-02-02T12:27:23Z</time>
      </trkpt>
      <trkpt lat="43.54375" lon="6.37665">
        <ele>352.8</ele>
        <time>2026-02-02T12:27:35Z</time>
      </trkpt>
      <trkpt lat="43.54371" lon="6.37678">
        <ele>352.9</ele>
        <time>2026-02-02T12:27:49Z</time>
      </trkpt>
      <trkpt lat="43.54365" lon="6.37687">
        <ele>352.9</ele>
        <time>2026-02-02T12:28:00Z</time>
      </trkpt>
      <trkpt lat="43.54356" lon="6.3769">
        <ele>352.9</ele>
        <time>2026-02-02T12:28:18Z</time>
      </trkpt>
      <trkpt lat="43.54346" lon="6.37691">
        <ele>352.6</ele>
        <time>2026-02-02T12:28:30Z</time>
      </trkpt>
      <trkpt lat="43.54337" lon="6.37691">
        <ele>352.6</ele>
        <time>2026-02-02T12:28:50Z</time>
      </trkpt>
      <trkpt lat="43.54327" lon="6.37689">
        <ele>352.6</ele>
        <time>2026-02-02T12:29:01Z</time>
      </trkpt>
      <trkpt lat="43.54318" lon="6.37688">
        <ele>351.8</ele>
        <time>2026-02-02T12:29:17Z</time>
      </trkpt>
      <trkpt lat="43.54309" lon="6.37685">
        <ele>352.3</ele>
        <time>2026-02-02T12:29:30Z</time>
      </trkpt>
      <trkpt lat="43.54299" lon="6.37681">
        <ele>352.1</ele>
        <time>2026-02-02T12:29:48Z</time>
      </trkpt>
      <trkpt lat="43.54289" lon="6.37683">
        <ele>351.9</ele>
        <time>2026-02-02T12:30:05Z</time>
      </trkpt>
      <trkpt lat="43.54281" lon="6.37688">
        <ele>351.8</ele>
        <time>2026-02-02T12:30:14Z</time>
      </trkpt>
      <trkpt lat="43.54272" lon="6.37694">
        <ele>351.6</ele>
        <time>2026-02-02T12:30:24Z</time>
      </trkpt>
      <trkpt lat="43.54263" lon="6.37699">
        <ele>351.5</ele>
        <time>2026-02-02T12:30:32Z</time>
      </trkpt>
      <trkpt lat="43.54255" lon="6.37707">
        <ele>351.5</ele>
        <time>2026-02-02T12:30:50Z</time>
      </trkpt>
      <trkpt lat="43.54246" lon="6.37712">
        <ele>351.2</ele>
        <time>2026-02-02T12:31:09Z</time>
      </trkpt>
      <trkpt lat="43.54238" lon="6.37718">
        <ele>351.2</ele>
        <time>2026-02-02T12:31:30Z</time>
      </trkpt>
      <trkpt lat="43.54231" lon="6.37727">
        <ele>350.5</ele>
        <time>2026-02-02T12:31:41Z</time>
      </trkpt>
      <trkpt lat="43.54225" lon="6.37737">
        <ele>350.6</ele>
        <time>2026-02-02T12:31:54Z</time>
      </trkpt>
      <trkpt lat="43.54222" lon="6.37749">
        <ele>351.2</ele>
        <time>2026-02-02T12:32:12Z</time>
      </trkpt>
      <trkpt lat="43.54221" lon="6.37762">
        <ele>351.4</ele>
        <time>2026-02-02T12:32:23Z</time>
      </trkpt>
      <trkpt lat="43.54218" lon="6.37775">
        <ele>351.5</ele>
        <time>2026-02-02T12:32:35Z</time>
      </trkpt>
      <trkpt lat="43.54215" lon="6.37788">
        <ele>351.5</ele>
        <time>2026-02-02T12:32:47Z</time>
      </trkpt>
      <trkpt lat="43.54215" lon="6.37801">
        <ele>351.2</ele>
        <time>2026-02-02T12:32:59Z</time>
      </trkpt>
      <trkpt lat="43.54214" lon="6.37814">
        <ele>351.1</ele>
        <time>2026-02-02T12:33:07Z</time>
      </trkpt>
      <trkpt lat="43.54213" lon="6.37826">
        <ele>351</ele>
        <time>2026-02-02T12:33:16Z</time>
      </trkpt>
      <trkpt lat="43.54209" lon="6.37839">
        <ele>351</ele>
        <time>2026-02-02T12:33:26Z</time>
      </trkpt>
      <trkpt lat="43.54206" lon="6.3785">
        <ele>350.8</ele>
        <time>2026-02-02T12:33:35Z</time>
      </trkpt>
      <trkpt lat="43.54199" lon="6.3786">
        <ele>350.7</ele>
        <time>2026-02-02T12:33:45Z</time>
      </trkpt>
      <trkpt lat="43.54193" lon="6.37871">
        <ele>350.6</ele>
        <time>2026-02-02T12:33:54Z</time>
      </trkpt>
      <trkpt lat="43.54186" lon="6.37879">
        <ele>350.7</ele>
        <time>2026-02-02T12:34:02Z</time>
      </trkpt>
      <trkpt lat="43.5418" lon="6.37891">
        <ele>350.8</ele>
        <time>2026-02-02T12:34:09Z</time>
      </trkpt>
      <trkpt lat="43.54174" lon="6.37901">
        <ele>350.8</ele>
        <time>2026-02-02T12:34:16Z</time>
      </trkpt>
      <trkpt lat="43.5417" lon="6.37913">
        <ele>350.6</ele>
        <time>2026-02-02T12:34:24Z</time>
      </trkpt>
      <trkpt lat="43.54165" lon="6.37924">
        <ele>350.4</ele>
        <time>2026-02-02T12:34:32Z</time>
      </trkpt>
      <trkpt lat="43.54163" lon="6.37936">
        <ele>350.5</ele>
        <time>2026-02-02T12:34:41Z</time>
      </trkpt>
      <trkpt lat="43.54156" lon="6.37946">
        <ele>350.5</ele>
        <time>2026-02-02T12:34:50Z</time>
      </trkpt>
      <trkpt lat="43.54152" lon="6.37958">
        <ele>350.2</ele>
        <time>2026-02-02T12:34:58Z</time>
      </trkpt>
      <trkpt lat="43.5415" lon="6.37971">
        <ele>350.3</ele>
        <time>2026-02-02T12:35:06Z</time>
      </trkpt>
      <trkpt lat="43.54152" lon="6.37984">
        <ele>350.4</ele>
        <time>2026-02-02T12:35:14Z</time>
      </trkpt>
      <trkpt lat="43.54155" lon="6.37996">
        <ele>350.1</ele>
        <time>2026-02-02T12:35:27Z</time>
      </trkpt>
      <trkpt lat="43.54161" lon="6.38005">
        <ele>350.4</ele>
        <time>2026-02-02T12:35:37Z</time>
      </trkpt>
      <trkpt lat="43.54169" lon="6.38012">
        <ele>350.4</ele>
        <time>2026-02-02T12:35:47Z</time>
      </trkpt>
      <trkpt lat="43.54177" lon="6.3802">
        <ele>350.1</ele>
        <time>2026-02-02T12:36:00Z</time>
      </trkpt>
      <trkpt lat="43.54183" lon="6.38029">
        <ele>350.3</ele>
        <time>2026-02-02T12:36:12Z</time>
      </trkpt>
      <trkpt lat="43.54188" lon="6.3804">
        <ele>350.1</ele>
        <time>2026-02-02T12:36:22Z</time>
      </trkpt>
      <trkpt lat="43.54189" lon="6.38052">
        <ele>350.7</ele>
        <time>2026-02-02T12:36:33Z</time>
      </trkpt>
      <trkpt lat="43.54187" lon="6.38065">
        <ele>350.6</ele>
        <time>2026-02-02T12:36:46Z</time>
      </trkpt>
      <trkpt lat="43.54181" lon="6.38075">
        <ele>350.5</ele>
        <time>2026-02-02T12:37:05Z</time>
      </trkpt>
      <trkpt lat="43.54173" lon="6.38082">
        <ele>350.6</ele>
        <time>2026-02-02T12:38:19Z</time>
      </trkpt>
      <trkpt lat="43.54165" lon="6.38089">
        <ele>350.2</ele>
        <time>2026-02-02T12:38:31Z</time>
      </trkpt>
      <trkpt lat="43.54156" lon="6.38095">
        <ele>350.2</ele>
        <time>2026-02-02T12:38:40Z</time>
      </trkpt>
      <trkpt lat="43.54148" lon="6.38101">
        <ele>350.2</ele>
        <time>2026-02-02T12:39:06Z</time>
      </trkpt>
      <trkpt lat="43.54139" lon="6.38107">
        <ele>349.9</ele>
        <time>2026-02-02T12:39:14Z</time>
      </trkpt>
      <trkpt lat="43.54134" lon="6.38118">
        <ele>349.7</ele>
        <time>2026-02-02T12:39:27Z</time>
      </trkpt>
      <trkpt lat="43.54124" lon="6.38118">
        <ele>349.9</ele>
        <time>2026-02-02T12:39:42Z</time>
      </trkpt>
      <trkpt lat="43.54116" lon="6.3811">
        <ele>349.5</ele>
        <time>2026-02-02T12:39:55Z</time>
      </trkpt>
      <trkpt lat="43.54108" lon="6.38104">
        <ele>349.5</ele>
        <time>2026-02-02T12:40:06Z</time>
      </trkpt>
      <trkpt lat="43.541" lon="6.38098">
        <ele>349.5</ele>
        <time>2026-02-02T12:40:20Z</time>
      </trkpt>
      <trkpt lat="43.5409" lon="6.38102">
        <ele>349.5</ele>
        <time>2026-02-02T12:40:28Z</time>
      </trkpt>
      <trkpt lat="43.54081" lon="6.38105">
        <ele>349.1</ele>
        <time>2026-02-02T12:40:39Z</time>
      </trkpt>
      <trkpt lat="43.54072" lon="6.38107">
        <ele>349.2</ele>
        <time>2026-02-02T12:40:53Z</time>
      </trkpt>
      <trkpt lat="43.54063" lon="6.38113">
        <ele>348.8</ele>
        <time>2026-02-02T12:41:12Z</time>
      </trkpt>
      <trkpt lat="43.54053" lon="6.38114">
        <ele>349</ele>
        <time>2026-02-02T12:41:23Z</time>
      </trkpt>
      <trkpt lat="43.54046" lon="6.38122">
        <ele>348.5</ele>
        <time>2026-02-02T12:41:33Z</time>
      </trkpt>
      <trkpt lat="43.5404" lon="6.38131">
        <ele>348.4</ele>
        <time>2026-02-02T12:41:44Z</time>
      </trkpt>
      <trkpt lat="43.54035" lon="6.38143">
        <ele>348.3</ele>
        <time>2026-02-02T12:41:55Z</time>
      </trkpt>
      <trkpt lat="43.54028" lon="6.38152">
        <ele>348.3</ele>
        <time>2026-02-02T12:42:06Z</time>
      </trkpt>
      <trkpt lat="43.54022" lon="6.38162">
        <ele>348.1</ele>
        <time>2026-02-02T12:42:28Z</time>
      </trkpt>
      <trkpt lat="43.54015" lon="6.38173">
        <ele>347.9</ele>
        <time>2026-02-02T12:42:37Z</time>
      </trkpt>
      <trkpt lat="43.54009" lon="6.38183">
        <ele>347.8</ele>
        <time>2026-02-02T12:42:49Z</time>
      </trkpt>
      <trkpt lat="43.54004" lon="6.38193">
        <ele>347.7</ele>
        <time>2026-02-02T12:42:59Z</time>
      </trkpt>
      <trkpt lat="43.53999" lon="6.38204">
        <ele>347.1</ele>
        <time>2026-02-02T12:43:11Z</time>
      </trkpt>
      <trkpt lat="43.53993" lon="6.38214">
        <ele>346.9</ele>
        <time>2026-02-02T12:43:20Z</time>
      </trkpt>
      <trkpt lat="43.53987" lon="6.38225">
        <ele>346.5</ele>
        <time>2026-02-02T12:43:33Z</time>
      </trkpt>
      <trkpt lat="43.53983" lon="6.38236">
        <ele>346.1</ele>
        <time>2026-02-02T12:43:43Z</time>
      </trkpt>
      <trkpt lat="43.53979" lon="6.38248">
        <ele>346.3</ele>
        <time>2026-02-02T12:43:53Z</time>
      </trkpt>
      <trkpt lat="43.53975" lon="6.3826">
        <ele>345.5</ele>
        <time>2026-02-02T12:44:02Z</time>
      </trkpt>
      <trkpt lat="43.53977" lon="6.38273">
        <ele>345.4</ele>
        <time>2026-02-02T12:45:01Z</time>
      </trkpt>
      <trkpt lat="43.53984" lon="6.3828">
        <ele>345.3</ele>
        <time>2026-02-02T12:45:10Z</time>
      </trkpt>
      <trkpt lat="43.53992" lon="6.38288">
        <ele>344.7</ele>
        <time>2026-02-02T12:45:22Z</time>
      </trkpt>
      <trkpt lat="43.54001" lon="6.38292">
        <ele>344.1</ele>
        <time>2026-02-02T12:45:31Z</time>
      </trkpt>
      <trkpt lat="43.54007" lon="6.38302">
        <ele>344.2</ele>
        <time>2026-02-02T12:45:40Z</time>
      </trkpt>
      <trkpt lat="43.54006" lon="6.38315">
        <ele>344.1</ele>
        <time>2026-02-02T12:45:51Z</time>
      </trkpt>
      <trkpt lat="43.53997" lon="6.38319">
        <ele>343.7</ele>
        <time>2026-02-02T12:46:03Z</time>
      </trkpt>
      <trkpt lat="43.53987" lon="6.38317">
        <ele>343.4</ele>
        <time>2026-02-02T12:46:13Z</time>
      </trkpt>
      <trkpt lat="43.53978" lon="6.38321">
        <ele>343.2</ele>
        <time>2026-02-02T12:46:23Z</time>
      </trkpt>
      <trkpt lat="43.53969" lon="6.38325">
        <ele>343</ele>
        <time>2026-02-02T12:46:33Z</time>
      </trkpt>
      <trkpt lat="43.5396" lon="6.38328">
        <ele>342.7</ele>
        <time>2026-02-02T12:46:53Z</time>
      </trkpt>
      <trkpt lat="43.5395" lon="6.38326">
        <ele>342.5</ele>
        <time>2026-02-02T12:47:03Z</time>
      </trkpt>
      <trkpt lat="43.53941" lon="6.3833">
        <ele>342.3</ele>
        <time>2026-02-02T12:47:13Z</time>
      </trkpt>
      <trkpt lat="43.53932" lon="6.38333">
        <ele>341.8</ele>
        <time>2026-02-02T12:47:22Z</time>
      </trkpt>
      <trkpt lat="43.53923" lon="6.38335">
        <ele>341.3</ele>
        <time>2026-02-02T12:47:31Z</time>
      </trkpt>
      <trkpt lat="43.53916" lon="6.38345">
        <ele>340.8</ele>
        <time>2026-02-02T12:47:39Z</time>
      </trkpt>
      <trkpt lat="43.53909" lon="6.38355">
        <ele>340.8</ele>
        <time>2026-02-02T12:47:47Z</time>
      </trkpt>
      <trkpt lat="43.53902" lon="6.38364">
        <ele>340.3</ele>
        <time>2026-02-02T12:47:56Z</time>
      </trkpt>
      <trkpt lat="43.53896" lon="6.38375">
        <ele>340</ele>
        <time>2026-02-02T12:48:05Z</time>
      </trkpt>
      <trkpt lat="43.53893" lon="6.38386">
        <ele>340</ele>
        <time>2026-02-02T12:48:17Z</time>
      </trkpt>
      <trkpt lat="43.53891" lon="6.38399">
        <ele>339.8</ele>
        <time>2026-02-02T12:48:27Z</time>
      </trkpt>
      <trkpt lat="43.53885" lon="6.38411">
        <ele>339.8</ele>
        <time>2026-02-02T12:48:37Z</time>
      </trkpt>
      <trkpt lat="43.53882" lon="6.38424">
        <ele>339.5</ele>
        <time>2026-02-02T12:48:48Z</time>
      </trkpt>
      <trkpt lat="43.53876" lon="6.38435">
        <ele>339.3</ele>
        <time>2026-02-02T12:48:54Z</time>
      </trkpt>
      <trkpt lat="43.53871" lon="6.38446">
        <ele>339.4</ele>
        <time>2026-02-02T12:49:03Z</time>
      </trkpt>
      <trkpt lat="43.53866" lon="6.38456">
        <ele>339.2</ele>
        <time>2026-02-02T12:49:16Z</time>
      </trkpt>
      <trkpt lat="43.53863" lon="6.38468">
        <ele>339.1</ele>
        <time>2026-02-02T12:49:27Z</time>
      </trkpt>
      <trkpt lat="43.53861" lon="6.38481">
        <ele>338.8</ele>
        <time>2026-02-02T12:49:51Z</time>
      </trkpt>
      <trkpt lat="43.53859" lon="6.38493">
        <ele>339</ele>
        <time>2026-02-02T12:50:02Z</time>
      </trkpt>
      <trkpt lat="43.53857" lon="6.38505">
        <ele>338.9</ele>
        <time>2026-02-02T12:50:18Z</time>
      </trkpt>
      <trkpt lat="43.53854" lon="6.38518">
        <ele>338.8</ele>
        <time>2026-02-02T12:50:40Z</time>
      </trkpt>
      <trkpt lat="43.53851" lon="6.38531">
        <ele>338.5</ele>
        <time>2026-02-02T12:50:54Z</time>
      </trkpt>
      <trkpt lat="43.53851" lon="6.38544">
        <ele>338.3</ele>
        <time>2026-02-02T12:51:05Z</time>
      </trkpt>
      <trkpt lat="43.53849" lon="6.38556">
        <ele>337.9</ele>
        <time>2026-02-02T12:51:13Z</time>
      </trkpt>
      <trkpt lat="43.53848" lon="6.38568">
        <ele>337.7</ele>
        <time>2026-02-02T12:51:46Z</time>
      </trkpt>
      <trkpt lat="43.53849" lon="6.38582">
        <ele>337.5</ele>
        <time>2026-02-02T12:52:09Z</time>
      </trkpt>
      <trkpt lat="43.53849" lon="6.38595">
        <ele>337.3</ele>
        <time>2026-02-02T12:52:22Z</time>
      </trkpt>
      <trkpt lat="43.53851" lon="6.38608">
        <ele>337.1</ele>
        <time>2026-02-02T12:52:34Z</time>
      </trkpt>
      <trkpt lat="43.53856" lon="6.38619">
        <ele>336.6</ele>
        <time>2026-02-02T12:52:47Z</time>
      </trkpt>
      <trkpt lat="43.53859" lon="6.38631">
        <ele>336.3</ele>
        <time>2026-02-02T12:52:58Z</time>
      </trkpt>
      <trkpt lat="43.5386" lon="6.38643">
        <ele>336.2</ele>
        <time>2026-02-02T12:53:12Z</time>
      </trkpt>
      <trkpt lat="43.5386" lon="6.38656">
        <ele>336.3</ele>
        <time>2026-02-02T12:53:37Z</time>
      </trkpt>
      <trkpt lat="43.53861" lon="6.38669">
        <ele>336.3</ele>
        <time>2026-02-02T12:54:16Z</time>
      </trkpt>
      <trkpt lat="43.53861" lon="6.38682">
        <ele>336</ele>
        <time>2026-02-02T12:54:28Z</time>
      </trkpt>
      <trkpt lat="43.53862" lon="6.38694">
        <ele>335.8</ele>
        <time>2026-02-02T12:54:35Z</time>
      </trkpt>
      <trkpt lat="43.5386" lon="6.38707">
        <ele>335.6</ele>
        <time>2026-02-02T12:54:44Z</time>
      </trkpt>
      <trkpt lat="43.53859" lon="6.38721">
        <ele>335.5</ele>
        <time>2026-02-02T12:54:54Z</time>
      </trkpt>
      <trkpt lat="43.53858" lon="6.38734">
        <ele>335.1</ele>
        <time>2026-02-02T12:55:02Z</time>
      </trkpt>
      <trkpt lat="43.53858" lon="6.38746">
        <ele>335.5</ele>
        <time>2026-02-02T12:55:14Z</time>
      </trkpt>
      <trkpt lat="43.53854" lon="6.38758">
        <ele>335.2</ele>
        <time>2026-02-02T12:55:36Z</time>
      </trkpt>
      <trkpt lat="43.53853" lon="6.38771">
        <ele>334.9</ele>
        <time>2026-02-02T12:55:48Z</time>
      </trkpt>
      <trkpt lat="43.5385" lon="6.38783">
        <ele>335.1</ele>
        <time>2026-02-02T12:56:03Z</time>
      </trkpt>
      <trkpt lat="43.53846" lon="6.38796">
        <ele>334.9</ele>
        <time>2026-02-02T12:56:14Z</time>
      </trkpt>
      <trkpt lat="43.53843" lon="6.38809">
        <ele>334.9</ele>
        <time>2026-02-02T12:56:24Z</time>
      </trkpt>
      <trkpt lat="43.53838" lon="6.3882">
        <ele>335.2</ele>
        <time>2026-02-02T12:56:40Z</time>
      </trkpt>
      <trkpt lat="43.53834" lon="6.38832">
        <ele>334.9</ele>
        <time>2026-02-02T12:56:51Z</time>
      </trkpt>
      <trkpt lat="43.53825" lon="6.38838">
        <ele>334.7</ele>
        <time>2026-02-02T12:57:01Z</time>
      </trkpt>
      <trkpt lat="43.53816" lon="6.38839">
        <ele>334.4</ele>
        <time>2026-02-02T12:57:11Z</time>
      </trkpt>
      <trkpt lat="43.53807" lon="6.38839">
        <ele>334.1</ele>
        <time>2026-02-02T12:57:23Z</time>
      </trkpt>
      <trkpt lat="43.538" lon="6.38848">
        <ele>334.3</ele>
        <time>2026-02-02T12:57:44Z</time>
      </trkpt>
      <trkpt lat="43.53794" lon="6.38858">
        <ele>334</ele>
        <time>2026-02-02T12:57:56Z</time>
      </trkpt>
      <trkpt lat="43.53796" lon="6.38872">
        <ele>334.1</ele>
        <time>2026-02-02T12:58:09Z</time>
      </trkpt>
      <trkpt lat="43.53794" lon="6.38885">
        <ele>334.1</ele>
        <time>2026-02-02T12:58:18Z</time>
      </trkpt>
      <trkpt lat="43.53791" lon="6.38897">
        <ele>334</ele>
        <time>2026-02-02T12:58:27Z</time>
      </trkpt>
      <trkpt lat="43.5379" lon="6.3891">
        <ele>334.1</ele>
        <time>2026-02-02T12:58:48Z</time>
      </trkpt>
      <trkpt lat="43.53787" lon="6.38923">
        <ele>334.1</ele>
        <time>2026-02-02T12:58:58Z</time>
      </trkpt>
      <trkpt lat="43.53783" lon="6.38934">
        <ele>333.9</ele>
        <time>2026-02-02T12:59:08Z</time>
      </trkpt>
      <trkpt lat="43.53778" lon="6.38946">
        <ele>333.8</ele>
        <time>2026-02-02T12:59:17Z</time>
      </trkpt>
      <trkpt lat="43.53774" lon="6.38957">
        <ele>333.3</ele>
        <time>2026-02-02T12:59:27Z</time>
      </trkpt>
      <trkpt lat="43.53769" lon="6.38967">
        <ele>333</ele>
        <time>2026-02-02T12:59:36Z</time>
      </trkpt>
      <trkpt lat="43.53761" lon="6.38976">
        <ele>332.6</ele>
        <time>2026-02-02T12:59:49Z</time>
      </trkpt>
      <trkpt lat="43.53755" lon="6.38986">
        <ele>332.6</ele>
        <time>2026-02-02T13:00:03Z</time>
      </trkpt>
      <trkpt lat="43.53747" lon="6.38995">
        <ele>331.8</ele>
        <time>2026-02-02T13:00:14Z</time>
      </trkpt>
      <trkpt lat="43.5374" lon="6.39002">
        <ele>331.5</ele>
        <time>2026-02-02T13:00:25Z</time>
      </trkpt>
      <trkpt lat="43.53731" lon="6.39009">
        <ele>331.4</ele>
        <time>2026-02-02T13:00:36Z</time>
      </trkpt>
      <trkpt lat="43.53723" lon="6.39015">
        <ele>331.1</ele>
        <time>2026-02-02T13:00:47Z</time>
      </trkpt>
      <trkpt lat="43.53715" lon="6.39019">
        <ele>331.1</ele>
        <time>2026-02-02T13:01:02Z</time>
      </trkpt>
      <trkpt lat="43.53705" lon="6.39019">
        <ele>331.3</ele>
        <time>2026-02-02T13:01:18Z</time>
      </trkpt>
      <trkpt lat="43.53695" lon="6.39017">
        <ele>331</ele>
        <time>2026-02-02T13:01:29Z</time>
      </trkpt>
      <trkpt lat="43.53686" lon="6.39016">
        <ele>331</ele>
        <time>2026-02-02T13:01:45Z</time>
      </trkpt>
      <trkpt lat="43.53677" lon="6.39014">
        <ele>331</ele>
        <time>2026-02-02T13:01:54Z</time>
      </trkpt>
      <trkpt lat="43.53668" lon="6.39014">
        <ele>330.9</ele>
        <time>2026-02-02T13:02:05Z</time>
      </trkpt>
      <trkpt lat="43.53659" lon="6.39019">
        <ele>330.9</ele>
        <time>2026-02-02T13:02:23Z</time>
      </trkpt>
      <trkpt lat="43.5365" lon="6.39024">
        <ele>331.1</ele>
        <time>2026-02-02T13:02:39Z</time>
      </trkpt>
      <trkpt lat="43.53643" lon="6.39032">
        <ele>331.2</ele>
        <time>2026-02-02T13:02:50Z</time>
      </trkpt>
      <trkpt lat="43.53636" lon="6.3904">
        <ele>331.2</ele>
        <time>2026-02-02T13:03:00Z</time>
      </trkpt>
      <trkpt lat="43.53631" lon="6.3905">
        <ele>331.2</ele>
        <time>2026-02-02T13:03:12Z</time>
      </trkpt>
      <trkpt lat="43.53623" lon="6.39058">
        <ele>331.2</ele>
        <time>2026-02-02T13:03:27Z</time>
      </trkpt>
      <trkpt lat="43.53616" lon="6.39065">
        <ele>332.6</ele>
        <time>2026-02-02T13:03:48Z</time>
      </trkpt>
      <trkpt lat="43.53607" lon="6.39072">
        <ele>333.2</ele>
        <time>2026-02-02T13:04:04Z</time>
      </trkpt>
      <trkpt lat="43.53601" lon="6.39082">
        <ele>333.3</ele>
        <time>2026-02-02T13:04:17Z</time>
      </trkpt>
      <trkpt lat="43.53596" lon="6.39094">
        <ele>333.1</ele>
        <time>2026-02-02T13:04:27Z</time>
      </trkpt>
      <trkpt lat="43.53589" lon="6.39103">
        <ele>332.6</ele>
        <time>2026-02-02T13:04:36Z</time>
      </trkpt>
      <trkpt lat="43.5359" lon="6.39116">
        <ele>332.2</ele>
        <time>2026-02-02T13:05:09Z</time>
      </trkpt>
      <trkpt lat="43.53581" lon="6.39114">
        <ele>332.6</ele>
        <time>2026-02-02T13:05:28Z</time>
      </trkpt>
      <trkpt lat="43.53574" lon="6.39123">
        <ele>333.1</ele>
        <time>2026-02-02T13:05:54Z</time>
      </trkpt>
      <trkpt lat="43.53569" lon="6.39134">
        <ele>333.1</ele>
        <time>2026-02-02T13:06:05Z</time>
      </trkpt>
      <trkpt lat="43.53563" lon="6.39143">
        <ele>333</ele>
        <time>2026-02-02T13:06:16Z</time>
      </trkpt>
      <trkpt lat="43.53557" lon="6.39152">
        <ele>333.1</ele>
        <time>2026-02-02T13:06:24Z</time>
      </trkpt>
      <trkpt lat="43.53551" lon="6.39162">
        <ele>333.1</ele>
        <time>2026-02-02T13:06:33Z</time>
      </trkpt>
      <trkpt lat="43.53545" lon="6.39172">
        <ele>333.2</ele>
        <time>2026-02-02T13:06:42Z</time>
      </trkpt>
      <trkpt lat="43.53539" lon="6.39183">
        <ele>333.2</ele>
        <time>2026-02-02T13:06:50Z</time>
      </trkpt>
      <trkpt lat="43.53535" lon="6.39194">
        <ele>332.9</ele>
        <time>2026-02-02T13:06:59Z</time>
      </trkpt>
      <trkpt lat="43.53531" lon="6.39206">
        <ele>332.8</ele>
        <time>2026-02-02T13:07:11Z</time>
      </trkpt>
      <trkpt lat="43.53524" lon="6.39216">
        <ele>332.8</ele>
        <time>2026-02-02T13:07:20Z</time>
      </trkpt>
      <trkpt lat="43.53518" lon="6.39226">
        <ele>332.5</ele>
        <time>2026-02-02T13:07:29Z</time>
      </trkpt>
      <trkpt lat="43.53513" lon="6.39237">
        <ele>332.5</ele>
        <time>2026-02-02T13:07:38Z</time>
      </trkpt>
      <trkpt lat="43.53508" lon="6.39248">
        <ele>332.6</ele>
        <time>2026-02-02T13:07:46Z</time>
      </trkpt>
      <trkpt lat="43.53504" lon="6.39259">
        <ele>332.4</ele>
        <time>2026-02-02T13:07:54Z</time>
      </trkpt>
      <trkpt lat="43.535" lon="6.3927">
        <ele>332.3</ele>
        <time>2026-02-02T13:08:02Z</time>
      </trkpt>
      <trkpt lat="43.53495" lon="6.39282">
        <ele>332.4</ele>
        <time>2026-02-02T13:08:10Z</time>
      </trkpt>
      <trkpt lat="43.5349" lon="6.39293">
        <ele>332.4</ele>
        <time>2026-02-02T13:08:18Z</time>
      </trkpt>
      <trkpt lat="43.53485" lon="6.39304">
        <ele>332.4</ele>
        <time>2026-02-02T13:08:26Z</time>
      </trkpt>
      <trkpt lat="43.53483" lon="6.39318">
        <ele>332.2</ele>
        <time>2026-02-02T13:08:38Z</time>
      </trkpt>
      <trkpt lat="43.53478" lon="6.3933">
        <ele>331.6</ele>
        <time>2026-02-02T13:08:49Z</time>
      </trkpt>
      <trkpt lat="43.53476" lon="6.39343">
        <ele>331.2</ele>
        <time>2026-02-02T13:09:05Z</time>
      </trkpt>
      <trkpt lat="43.53473" lon="6.39355">
        <ele>330.2</ele>
        <time>2026-02-02T13:09:24Z</time>
      </trkpt>
      <trkpt lat="43.53467" lon="6.39364">
        <ele>329.7</ele>
        <time>2026-02-02T13:09:54Z</time>
      </trkpt>
      <trkpt lat="43.53457" lon="6.39364">
        <ele>329.7</ele>
        <time>2026-02-02T13:09:59Z</time>
      </trkpt>
      <trkpt lat="43.53447" lon="6.39367">
        <ele>329.6</ele>
        <time>2026-02-02T13:10:32Z</time>
      </trkpt>
      <trkpt lat="43.53446" lon="6.39382">
        <ele>329.7</ele>
        <time>2026-02-02T13:10:45Z</time>
      </trkpt>
      <trkpt lat="43.53443" lon="6.39394">
        <ele>329.3</ele>
        <time>2026-02-02T13:10:54Z</time>
      </trkpt>
      <trkpt lat="43.53444" lon="6.39407">
        <ele>329.3</ele>
        <time>2026-02-02T13:11:02Z</time>
      </trkpt>
      <trkpt lat="43.53442" lon="6.3942">
        <ele>329.4</ele>
        <time>2026-02-02T13:11:10Z</time>
      </trkpt>
      <trkpt lat="43.53438" lon="6.39432">
        <ele>329.7</ele>
        <time>2026-02-02T13:11:19Z</time>
      </trkpt>
      <trkpt lat="43.53438" lon="6.39445">
        <ele>329.5</ele>
        <time>2026-02-02T13:11:28Z</time>
      </trkpt>
      <trkpt lat="43.53438" lon="6.39459">
        <ele>328.8</ele>
        <time>2026-02-02T13:11:39Z</time>
      </trkpt>
      <trkpt lat="43.53435" lon="6.3947">
        <ele>328.7</ele>
        <time>2026-02-02T13:11:50Z</time>
      </trkpt>
      <trkpt lat="43.53432" lon="6.39483">
        <ele>328.3</ele>
        <time>2026-02-02T13:11:58Z</time>
      </trkpt>
      <trkpt lat="43.53429" lon="6.39495">
        <ele>328</ele>
        <time>2026-02-02T13:12:09Z</time>
      </trkpt>
      <trkpt lat="43.53426" lon="6.39508">
        <ele>328.2</ele>
        <time>2026-02-02T13:12:18Z</time>
      </trkpt>
      <trkpt lat="43.53422" lon="6.3952">
        <ele>328.1</ele>
        <time>2026-02-02T13:12:26Z</time>
      </trkpt>
      <trkpt lat="43.5342" lon="6.39533">
        <ele>327.9</ele>
        <time>2026-02-02T13:12:35Z</time>
      </trkpt>
      <trkpt lat="43.53417" lon="6.39544">
        <ele>327.8</ele>
        <time>2026-02-02T13:12:43Z</time>
      </trkpt>
      <trkpt lat="43.53409" lon="6.39554">
        <ele>327.5</ele>
        <time>2026-02-02T13:12:53Z</time>
      </trkpt>
      <trkpt lat="43.53403" lon="6.39563">
        <ele>327.4</ele>
        <time>2026-02-02T13:13:00Z</time>
      </trkpt>
      <trkpt lat="43.53395" lon="6.3957">
        <ele>327.3</ele>
        <time>2026-02-02T13:13:10Z</time>
      </trkpt>
      <trkpt lat="43.53387" lon="6.39578">
        <ele>326.3</ele>
        <time>2026-02-02T13:13:21Z</time>
      </trkpt>
      <trkpt lat="43.53381" lon="6.39589">
        <ele>326.1</ele>
        <time>2026-02-02T13:13:35Z</time>
      </trkpt>
      <trkpt lat="43.53372" lon="6.39588">
        <ele>326.2</ele>
        <time>2026-02-02T13:13:42Z</time>
      </trkpt>
      <trkpt lat="43.53363" lon="6.39583">
        <ele>326.1</ele>
        <time>2026-02-02T13:13:49Z</time>
      </trkpt>
      <trkpt lat="43.53352" lon="6.39582">
        <ele>326.1</ele>
        <time>2026-02-02T13:13:55Z</time>
      </trkpt>
      <trkpt lat="43.53343" lon="6.39584">
        <ele>325.8</ele>
        <time>2026-02-02T13:14:01Z</time>
      </trkpt>
      <trkpt lat="43.53334" lon="6.39578">
        <ele>325.8</ele>
        <time>2026-02-02T13:14:08Z</time>
      </trkpt>
      <trkpt lat="43.53325" lon="6.39572">
        <ele>326</ele>
        <time>2026-02-02T13:14:16Z</time>
      </trkpt>
      <trkpt lat="43.53317" lon="6.39564">
        <ele>325.9</ele>
        <time>2026-02-02T13:14:25Z</time>
      </trkpt>
      <trkpt lat="43.53312" lon="6.39552">
        <ele>325.3</ele>
        <time>2026-02-02T13:14:36Z</time>
      </trkpt>
      <trkpt lat="43.53307" lon="6.39542">
        <ele>326.3</ele>
        <time>2026-02-02T13:14:46Z</time>
      </trkpt>
      <trkpt lat="43.53306" lon="6.39529">
        <ele>327.1</ele>
        <time>2026-02-02T13:14:55Z</time>
      </trkpt>
      <trkpt lat="43.53305" lon="6.39517">
        <ele>328.2</ele>
        <time>2026-02-02T13:15:03Z</time>
      </trkpt>
      <trkpt lat="43.53306" lon="6.39503">
        <ele>329.3</ele>
        <time>2026-02-02T13:15:13Z</time>
      </trkpt>
      <trkpt lat="43.53299" lon="6.39493">
        <ele>330.5</ele>
        <time>2026-02-02T13:15:21Z</time>
      </trkpt>
      <trkpt lat="43.53296" lon="6.39481">
        <ele>331.6</ele>
        <time>2026-02-02T13:15:29Z</time>
      </trkpt>
      <trkpt lat="43.53292" lon="6.3947">
        <ele>333.5</ele>
        <time>2026-02-02T13:15:41Z</time>
      </trkpt>
      <trkpt lat="43.53288" lon="6.39458">
        <ele>334</ele>
        <time>2026-02-02T13:16:24Z</time>
      </trkpt>
      <trkpt lat="43.53288" lon="6.39457">
        <ele>333.8</ele>
        <time>2026-02-02T13:16:29Z</time>
      </trkpt>
    </trkseg>
  </trk>
</gpx>